Observation data for McCamey on 06/16/2019      Previous  Date  Next       Current Mesonet Observations  Soil Data  Daily Summary Page  Observations in Plain Language
KMC4 160500Z 15014KT 28/18 A2985 RMK A01 T02770176  RH  054%=      5-min Rain = 0
KMC4 160501Z 15011KT 28/18 A2985 RMK A01 T02780176  RH  054%=      5-min Rain = 0
KMC4 160502Z 15013KT 28/18 A2985 RMK A01 T02790177  RH  054%=      5-min Rain = 0
KMC4 160503Z 14010KT 28/18 A2985 RMK A01 T02780177  RH  054%=      5-min Rain = 0
KMC4 160504Z 15010KT 28/18 A2985 RMK A01 T02770177  RH  054%=      5-min Rain = 0
KMC4 160505Z 15010KT 28/18 A2985 RMK A01 T02770177  RH  055%=      5-min Rain = 0
KMC4 160506Z 15013KT 28/18 A2985 RMK A01 T02760177  RH  055%=      5-min Rain = 0
KMC4 160507Z 14012KT 28/18 A2985 RMK A01 T02760177  RH  055%=      5-min Rain = 0
KMC4 160508Z 15014KT 28/18 A2985 RMK A01 T02760177  RH  055%=      5-min Rain = 0
KMC4 160509Z 15015KT 28/18 A2985 RMK A01 T02760177  RH  055%=      5-min Rain = 0
KMC4 160510Z 15015KT 28/18 A2985 RMK A01 T02760177  RH  055%=      5-min Rain = 0
KMC4 160511Z 15016KT 28/18 A2985 RMK A01 T02760177  RH  055%=      5-min Rain = 0
KMC4 160512Z 15017G22KT 28/18 A2985 RMK A01 T02770177  RH  055%=      5-min Rain = 0
KMC4 160513Z 15018G23KT 28/18 A2985 RMK A01 T02770177  RH  054%=      5-min Rain = 0
KMC4 160514Z 15017KT 28/18 A2985 RMK A01 T02780177  RH  054%=      5-min Rain = 0
KMC4 160515Z 15014KT 28/18 A2985 RMK A01 T02780177  RH  054%=      5-min Rain = 0
KMC4 160516Z 15016KT 28/18 A2985 RMK A01 T02780178  RH  054%=      5-min Rain = 0
KMC4 160517Z 15014KT 28/18 A2985 RMK A01 T02780178  RH  055%=      5-min Rain = 0
KMC4 160518Z 15012KT 28/18 A2985 RMK A01 T02770178  RH  055%=      5-min Rain = 0
KMC4 160519Z 15015KT 28/18 A2985 RMK A01 T02770178  RH  055%=      5-min Rain = 0
KMC4 160520Z 15012G17KT 28/18 A2985 RMK A01 T02770178  RH  055%=      5-min Rain = 0
KMC4 160521Z 15015KT 28/18 A2985 RMK A01 T02760178  RH  055%=      5-min Rain = 0
KMC4 160522Z 15015KT 28/18 A2985 RMK A01 T02760178  RH  055%=      5-min Rain = 0
KMC4 160523Z 15014KT 28/18 A2985 RMK A01 T02770178  RH  055%=      5-min Rain = 0
KMC4 160524Z 15015KT 28/18 A2985 RMK A01 T02770178  RH  055%=      5-min Rain = 0
KMC4 160525Z 15013KT 28/18 A2985 RMK A01 T02770178  RH  055%=      5-min Rain = 0
KMC4 160526Z 15013KT 28/18 A2985 RMK A01 T02780177  RH  054%=      5-min Rain = 0
KMC4 160527Z 14014KT 28/18 A2985 RMK A01 T02770177  RH  054%=      5-min Rain = 0
KMC4 160528Z 14014KT 28/18 A2985 RMK A01 T02780177  RH  054%=      5-min Rain = 0
KMC4 160529Z 14013KT 28/18 A2985 RMK A01 T02770178  RH  055%=      5-min Rain = 0
KMC4 160530Z 14013KT 28/18 A2985 RMK A01 T02770178  RH  055%=      5-min Rain = 0
KMC4 160531Z 14012G17KT 28/18 A2985 RMK A01 T02770178  RH  055%=      5-min Rain = 0
KMC4 160532Z 14015G20KT 28/18 A2985 RMK A01 T02760178  RH  055%=      5-min Rain = 0
KMC4 160533Z 14019KT 28/18 A2985 RMK A01 T02760177  RH  055%=      5-min Rain = 0
KMC4 160534Z 15019G24KT 28/18 A2985 RMK A01 T02780177  RH  054%=      5-min Rain = 0
KMC4 160535Z 16017KT 28/18 A2985 RMK A01 T02790177  RH  054%=      5-min Rain = 0
KMC4 160536Z 16017G23KT 28/18 A2985 RMK A01 T02800177  RH  054%=      5-min Rain = 0
KMC4 160537Z 15012KT 28/18 A2985 RMK A01 T02800177  RH  054%=      5-min Rain = 0
KMC4 160538Z 15013KT 28/18 A2985 RMK A01 T02800177  RH  054%=      5-min Rain = 0
KMC4 160539Z 14012KT 28/18 A2985 RMK A01 T02790177  RH  054%=      5-min Rain = 0
KMC4 160540Z 14012KT 28/18 A2985 RMK A01 T02790177  RH  054%=      5-min Rain = 0
KMC4 160541Z 15016KT 28/18 A2985 RMK A01 T02780177  RH  054%=      5-min Rain = 0
KMC4 160542Z 14012KT 28/18 A2985 RMK A01 T02780177  RH  054%=      5-min Rain = 0
KMC4 160543Z 15012KT 28/18 A2985 RMK A01 T02780177  RH  054%=      5-min Rain = 0
KMC4 160544Z 15013KT 28/18 A2985 RMK A01 T02770177  RH  054%=      5-min Rain = 0
KMC4 160545Z 15017G22KT 28/18 A2984 RMK A01 T02770176  RH  054%=      5-min Rain = 0
KMC4 160546Z 15016KT 28/18 A2985 RMK A01 T02770177  RH  054%=      5-min Rain = 0
KMC4 160547Z 15015KT 28/18 A2984 RMK A01 T02780177  RH  054%=      5-min Rain = 0
KMC4 160548Z 15015KT 28/18 A2984 RMK A01 T02790177  RH  054%=      5-min Rain = 0
KMC4 160549Z 15011KT 28/18 A2985 RMK A01 T02790177  RH  054%=      5-min Rain = 0
KMC4 160550Z 15016KT 28/18 A2985 RMK A01 T02780177  RH  054%=      5-min Rain = 0
KMC4 160551Z 15016KT 28/18 A2985 RMK A01 T02780176  RH  054%=      5-min Rain = 0
KMC4 160552Z 16010KT 28/18 A2985 RMK A01 T02790176  RH  054%=      5-min Rain = 0
KMC4 160553Z 15008KT 28/18 A2985 RMK A01 T02790177  RH  054%=      5-min Rain = 0
KMC4 160554Z 15011G16KT 28/18 A2985 RMK A01 T02780177  RH  054%=      5-min Rain = 0
KMC4 160555Z 15015KT 28/18 A2984 RMK A01 T02770177  RH  054%=      5-min Rain = 0
KMC4 160556Z 15013KT 28/18 A2985 RMK A01 T02770177  RH  054%=      5-min Rain = 0
KMC4 160557Z 15013G18KT 28/18 A2985 RMK A01 T02760177  RH  055%=      5-min Rain = 0
KMC4 160558Z 15013KT 28/18 A2984 RMK A01 T02760177  RH  055%=      5-min Rain = 0
KMC4 160559Z 15011G16KT 28/18 A2985 RMK A01 T02760177  RH  055%=      5-min Rain = 0
KMC4 160600Z 15012KT 28/18 A2984 RMK A01 T02760177  RH  055%=      5-min Rain = 0
KMC4 160601Z 14010KT 28/18 A2984 RMK A01 T02760177  RH  055%=      5-min Rain = 0
KMC4 160602Z 14011KT 28/18 A2984 RMK A01 T02750176  RH  055%=      5-min Rain = 0
KMC4 160603Z 14010KT 28/18 A2984 RMK A01 T02750177  RH  055%=      5-min Rain = 0
KMC4 160604Z 15011G16KT 28/18 A2984 RMK A01 T02750177  RH  055%=      5-min Rain = 0
KMC4 160605Z 15012KT 28/18 A2984 RMK A01 T02750177  RH  055%=      5-min Rain = 0
KMC4 160606Z 14012KT 28/18 A2984 RMK A01 T02750176  RH  055%=      5-min Rain = 0
KMC4 160607Z 15011KT 28/18 A2984 RMK A01 T02750177  RH  055%=      5-min Rain = 0
KMC4 160608Z 14010KT 27/18 A2984 RMK A01 T02740177  RH  055%=      5-min Rain = 0
KMC4 160609Z 15010KT 27/18 A2984 RMK A01 T02730177  RH  056%=      5-min Rain = 0
KMC4 160610Z 15010KT 27/18 A2984 RMK A01 T02720177  RH  056%=      5-min Rain = 0
KMC4 160611Z 15013KT 27/18 A2984 RMK A01 T02720176  RH  056%=      5-min Rain = 0
KMC4 160612Z 14013KT 27/18 A2984 RMK A01 T02720177  RH  056%=      5-min Rain = 0
KMC4 160613Z 14010KT 27/18 A2984 RMK A01 T02720177  RH  056%=      5-min Rain = 0
KMC4 160614Z 14011KT 27/18 A2984 RMK A01 T02730177  RH  056%=      5-min Rain = 0
KMC4 160615Z 14010KT 27/18 A2984 RMK A01 T02720177  RH  056%=      5-min Rain = 0
KMC4 160616Z 15010KT 27/18 A2984 RMK A01 T02720177  RH  056%=      5-min Rain = 0
KMC4 160617Z 15014KT 27/18 A2984 RMK A01 T02720176  RH  056%=      5-min Rain = 0
KMC4 160618Z 15013KT 27/18 A2984 RMK A01 T02720176  RH  056%=      5-min Rain = 0
KMC4 160619Z 14010KT 27/18 A2984 RMK A01 T02730176  RH  055%=      5-min Rain = 0
KMC4 160620Z 15012KT 27/18 A2985 RMK A01 T02730176  RH  055%=      5-min Rain = 0
KMC4 160621Z 15011KT 27/18 A2985 RMK A01 T02730176  RH  055%=      5-min Rain = 0
KMC4 160622Z 15010KT 27/18 A2985 RMK A01 T02730176  RH  055%=      5-min Rain = 0
KMC4 160623Z 15010KT 27/18 A2985 RMK A01 T02730176  RH  055%=      5-min Rain = 0
KMC4 160624Z 14008KT 27/18 A2985 RMK A01 T02730176  RH  055%=      5-min Rain = 0
KMC4 160625Z 15011KT 27/18 A2985 RMK A01 T02730176  RH  055%=      5-min Rain = 0
KMC4 160626Z 13010KT 27/18 A2985 RMK A01 T02730176  RH  056%=      5-min Rain = 0
KMC4 160627Z 15013KT 27/18 A2984 RMK A01 T02730176  RH  056%=      5-min Rain = 0
KMC4 160628Z 15013G18KT 27/18 A2984 RMK A01 T02730176  RH  056%=      5-min Rain = 0
KMC4 160629Z 14011KT 27/18 A2984 RMK A01 T02730176  RH  055%=      5-min Rain = 0
KMC4 160630Z 16011KT 27/18 A2985 RMK A01 T02730176  RH  055%=      5-min Rain = 0
KMC4 160631Z 15009KT 27/18 A2985 RMK A01 T02730176  RH  056%=      5-min Rain = 0
KMC4 160632Z 15010KT 27/18 A2985 RMK A01 T02720176  RH  056%=      5-min Rain = 0
KMC4 160633Z 15009KT 27/18 A2985 RMK A01 T02710176  RH  056%=      5-min Rain = 0
KMC4 160634Z 14009KT 27/18 A2985 RMK A01 T02710176  RH  056%=      5-min Rain = 0
KMC4 160635Z 15010KT 27/18 A2985 RMK A01 T02710176  RH  056%=      5-min Rain = 0
KMC4 160636Z 15010KT 27/18 A2985 RMK A01 T02710176  RH  056%=      5-min Rain = 0
KMC4 160637Z 14010KT 27/18 A2985 RMK A01 T02720176  RH  056%=      5-min Rain = 0
KMC4 160638Z 15011KT 27/18 A2985 RMK A01 T02720176  RH  056%=      5-min Rain = 0
KMC4 160639Z 16011KT 27/18 A2985 RMK A01 T02720176  RH  056%=      5-min Rain = 0
KMC4 160640Z 16011KT 27/18 A2985 RMK A01 T02720176  RH  056%=      5-min Rain = 0
KMC4 160641Z 15009KT 27/18 A2985 RMK A01 T02720176  RH  056%=      5-min Rain = 0
KMC4 160642Z 15010KT 27/18 A2985 RMK A01 T02720176  RH  056%=      5-min Rain = 0
KMC4 160643Z 16009KT 27/18 A2985 RMK A01 T02720176  RH  056%=      5-min Rain = 0
KMC4 160644Z 16007KT 27/18 A2985 RMK A01 T02720176  RH  056%=      5-min Rain = 0
KMC4 160645Z 15008KT 27/18 A2985 RMK A01 T02720176  RH  056%=      5-min Rain = 0
KMC4 160646Z 15009KT 27/18 A2985 RMK A01 T02720176  RH  056%=      5-min Rain = 0
KMC4 160647Z 15010KT 27/18 A2985 RMK A01 T02710176  RH  056%=      5-min Rain = 0
KMC4 160648Z 14011KT 27/18 A2985 RMK A01 T02710176  RH  056%=      5-min Rain = 0
KMC4 160649Z 15009KT 27/18 A2985 RMK A01 T02710176  RH  056%=      5-min Rain = 0
KMC4 160650Z 16010KT 27/18 A2985 RMK A01 T02720176  RH  056%=      5-min Rain = 0
KMC4 160651Z 15009KT 27/18 A2985 RMK A01 T02720176  RH  056%=      5-min Rain = 0
KMC4 160652Z 14008KT 27/18 A2985 RMK A01 T02720176  RH  056%=      5-min Rain = 0
KMC4 160653Z 15008KT 27/18 A2985 RMK A01 T02720176  RH  056%=      5-min Rain = 0
KMC4 160654Z 15011KT 27/18 A2985 RMK A01 T02720176  RH  056%=      5-min Rain = 0
KMC4 160655Z 14010KT 27/18 A2985 RMK A01 T02720176  RH  056%=      5-min Rain = 0
KMC4 160656Z 14013KT 27/18 A2985 RMK A01 T02720175  RH  056%=      5-min Rain = 0
KMC4 160657Z 14011KT 27/18 A2985 RMK A01 T02730175  RH  055%=      5-min Rain = 0
KMC4 160658Z 14014KT 27/18 A2985 RMK A01 T02730175  RH  055%=      5-min Rain = 0
KMC4 160659Z 14014KT 27/18 A2985 RMK A01 T02740175  RH  055%=      5-min Rain = 0
KMC4 160700Z 15013KT 28/18 A2985 RMK A01 T02750175  RH  055%=      5-min Rain = 0
KMC4 160701Z 14012G18KT 28/18 A2985 RMK A01 T02750176  RH  055%=      5-min Rain = 0
KMC4 160702Z 15010KT 28/18 A2985 RMK A01 T02750176  RH  055%=      5-min Rain = 0
KMC4 160703Z 15011KT 27/18 A2985 RMK A01 T02740175  RH  055%=      5-min Rain = 0
KMC4 160704Z 14010KT 27/18 A2985 RMK A01 T02730175  RH  055%=      5-min Rain = 0
KMC4 160705Z 14012G17KT 27/18 A2985 RMK A01 T02730175  RH  055%=      5-min Rain = 0
KMC4 160706Z 14015KT 27/18 A2985 RMK A01 T02720175  RH  055%=      5-min Rain = 0
KMC4 160707Z 15013KT 27/18 A2985 RMK A01 T02730175  RH  055%=      5-min Rain = 0
KMC4 160708Z 14011KT 27/18 A2985 RMK A01 T02740175  RH  055%=      5-min Rain = 0
KMC4 160709Z 14014KT 27/18 A2985 RMK A01 T02740175  RH  055%=      5-min Rain = 0
KMC4 160710Z 14013G18KT 27/18 A2985 RMK A01 T02740175  RH  055%=      5-min Rain = 0
KMC4 160711Z 14015KT 27/18 A2985 RMK A01 T02740175  RH  054%=      5-min Rain = 0
KMC4 160712Z 13012KT 28/18 A2985 RMK A01 T02750175  RH  054%=      5-min Rain = 0
KMC4 160713Z 14012KT 27/17 A2985 RMK A01 T02740174  RH  054%=      5-min Rain = 0
KMC4 160714Z 14012KT 27/17 A2985 RMK A01 T02740174  RH  054%=      5-min Rain = 0
KMC4 160715Z 14012KT 27/17 A2985 RMK A01 T02740174  RH  055%=      5-min Rain = 0
KMC4 160716Z 14013KT 27/17 A2985 RMK A01 T02730174  RH  055%=      5-min Rain = 0
KMC4 160717Z 14015KT 27/17 A2985 RMK A01 T02730173  RH  054%=      5-min Rain = 0
KMC4 160718Z 13011KT 27/17 A2985 RMK A01 T02730173  RH  054%=      5-min Rain = 0
KMC4 160719Z 13012KT 27/17 A2985 RMK A01 T02730174  RH  054%=      5-min Rain = 0
KMC4 160720Z 13009KT 27/17 A2985 RMK A01 T02730174  RH  055%=      5-min Rain = 0
KMC4 160721Z 12009KT 27/17 A2985 RMK A01 T02720174  RH  055%=      5-min Rain = 0
KMC4 160722Z 13010KT 27/17 A2985 RMK A01 T02720174  RH  055%=      5-min Rain = 0
KMC4 160723Z 12008KT 27/17 A2985 RMK A01 T02710174  RH  055%=      5-min Rain = 0
KMC4 160724Z 12008KT 27/18 A2985 RMK A01 T02710175  RH  056%=      5-min Rain = 0
KMC4 160725Z 13010KT 27/18 A2985 RMK A01 T02700175  RH  056%=      5-min Rain = 0
KMC4 160726Z 13014G20KT 27/17 A2985 RMK A01 T02690174  RH  056%=      5-min Rain = 0
KMC4 160727Z 13014KT 27/17 A2985 RMK A01 T02690174  RH  056%=      5-min Rain = 0
KMC4 160728Z 13013KT 27/17 A2986 RMK A01 T02690174  RH  056%=      5-min Rain = 0
KMC4 160729Z 13013KT 27/17 A2986 RMK A01 T02700174  RH  056%=      5-min Rain = 0
KMC4 160730Z 13012KT 27/17 A2986 RMK A01 T02700174  RH  056%=      5-min Rain = 0
KMC4 160731Z 14011KT 27/17 A2986 RMK A01 T02710174  RH  056%=      5-min Rain = 0
KMC4 160732Z 13012KT 27/17 A2986 RMK A01 T02710174  RH  056%=      5-min Rain = 0
KMC4 160733Z 12011KT 27/17 A2986 RMK A01 T02700174  RH  056%=      5-min Rain = 0
KMC4 160734Z 12012KT 27/17 A2986 RMK A01 T02690174  RH  056%=      5-min Rain = 0
KMC4 160735Z 13011KT 27/17 A2986 RMK A01 T02690174  RH  056%=      5-min Rain = 0
KMC4 160736Z 13014KT 27/17 A2985 RMK A01 T02690174  RH  056%=      5-min Rain = 0
KMC4 160737Z 13014KT 27/17 A2985 RMK A01 T02700174  RH  056%=      5-min Rain = 0
KMC4 160738Z 13012KT 27/17 A2986 RMK A01 T02700174  RH  056%=      5-min Rain = 0
KMC4 160739Z 14012KT 27/17 A2986 RMK A01 T02700174  RH  056%=      5-min Rain = 0
KMC4 160740Z 14011KT 27/17 A2985 RMK A01 T02700174  RH  056%=      5-min Rain = 0
KMC4 160741Z 14011KT 27/18 A2985 RMK A01 T02690175  RH  056%=      5-min Rain = 0
KMC4 160742Z 13012KT 27/17 A2985 RMK A01 T02690174  RH  056%=      5-min Rain = 0
KMC4 160743Z 13013KT 27/18 A2985 RMK A01 T02690175  RH  056%=      5-min Rain = 0
KMC4 160744Z 13011KT 27/17 A2985 RMK A01 T02690174  RH  056%=      5-min Rain = 0
KMC4 160745Z 14012KT 27/17 A2985 RMK A01 T02680174  RH  056%=      5-min Rain = 0
KMC4 160746Z 13011KT 27/17 A2985 RMK A01 T02680174  RH  056%=      5-min Rain = 0
KMC4 160747Z 13010KT 27/17 A2985 RMK A01 T02670174  RH  057%=      5-min Rain = 0
KMC4 160748Z 13011KT 27/17 A2985 RMK A01 T02670174  RH  057%=      5-min Rain = 0
KMC4 160749Z 13014KT 27/17 A2985 RMK A01 T02660174  RH  057%=      5-min Rain = 0
KMC4 160750Z 13013KT 27/17 A2985 RMK A01 T02660174  RH  057%=      5-min Rain = 0
KMC4 160751Z 13010KT 27/18 A2985 RMK A01 T02660175  RH  057%=      5-min Rain = 0
KMC4 160752Z 13013KT 27/17 A2985 RMK A01 T02660174  RH  057%=      5-min Rain = 0
KMC4 160753Z 14013KT 27/17 A2985 RMK A01 T02650174  RH  057%=      5-min Rain = 0
KMC4 160754Z 13012KT 27/18 A2985 RMK A01 T02660175  RH  057%=      5-min Rain = 0
KMC4 160755Z 14013KT 27/18 A2985 RMK A01 T02650175  RH  058%=      5-min Rain = 0
KMC4 160756Z 14014KT 27/17 A2985 RMK A01 T02650174  RH  058%=      5-min Rain = 0
KMC4 160757Z 14012KT 27/17 A2985 RMK A01 T02650174  RH  058%=      5-min Rain = 0
KMC4 160758Z 14015KT 27/18 A2985 RMK A01 T02650175  RH  058%=      5-min Rain = 0
KMC4 160759Z 14013KT 27/17 A2985 RMK A01 T02650174  RH  057%=      5-min Rain = 0
KMC4 160800Z 13014KT 27/17 A2985 RMK A01 T02650174  RH  057%=      5-min Rain = 0
KMC4 160801Z 14013KT 27/17 A2985 RMK A01 T02650174  RH  057%=      5-min Rain = 0
KMC4 160802Z 13012KT 27/17 A2985 RMK A01 T02650174  RH  057%=      5-min Rain = 0
KMC4 160803Z 13012KT 27/17 A2985 RMK A01 T02650174  RH  058%=      5-min Rain = 0
KMC4 160804Z 13013KT 26/17 A2985 RMK A01 T02640174  RH  058%=      5-min Rain = 0
KMC4 160805Z 13011KT 26/17 A2985 RMK A01 T02640174  RH  058%=      5-min Rain = 0
KMC4 160806Z 13012G17KT 26/17 A2985 RMK A01 T02640174  RH  058%=      5-min Rain = 0
KMC4 160807Z 13012KT 26/17 A2985 RMK A01 T02640174  RH  058%=      5-min Rain = 0
KMC4 160808Z 13011KT 26/17 A2985 RMK A01 T02640174  RH  058%=      5-min Rain = 0
KMC4 160809Z 13013KT 26/17 A2985 RMK A01 T02630174  RH  058%=      5-min Rain = 0
KMC4 160810Z 13013KT 26/17 A2985 RMK A01 T02630174  RH  058%=      5-min Rain = 0
KMC4 160811Z 13013KT 26/17 A2985 RMK A01 T02630174  RH  058%=      5-min Rain = 0
KMC4 160812Z 13011KT 26/17 A2985 RMK A01 T02630174  RH  058%=      5-min Rain = 0
KMC4 160813Z 13012KT 26/18 A2985 RMK A01 T02630175  RH  058%=      5-min Rain = 0
KMC4 160814Z 13011KT 26/17 A2985 RMK A01 T02620174  RH  058%=      5-min Rain = 0
KMC4 160815Z 13011KT 26/17 A2985 RMK A01 T02620174  RH  058%=      5-min Rain = 0
KMC4 160816Z 13012KT 26/17 A2985 RMK A01 T02620174  RH  058%=      5-min Rain = 0
KMC4 160817Z 12012KT 26/17 A2985 RMK A01 T02620174  RH  058%=      5-min Rain = 0
KMC4 160818Z 13013KT 26/17 A2985 RMK A01 T02620174  RH  058%=      5-min Rain = 0
KMC4 160819Z 13011KT 26/17 A2985 RMK A01 T02620174  RH  058%=      5-min Rain = 0
KMC4 160820Z 14014KT 26/17 A2985 RMK A01 T02620174  RH  059%=      5-min Rain = 0
KMC4 160821Z 14014KT 26/17 A2985 RMK A01 T02610174  RH  059%=      5-min Rain = 0
KMC4 160822Z 14013KT 26/17 A2985 RMK A01 T02610174  RH  059%=      5-min Rain = 0
KMC4 160823Z 14013KT 26/17 A2985 RMK A01 T02610174  RH  059%=      5-min Rain = 0
KMC4 160824Z 14013KT 26/17 A2985 RMK A01 T02610173  RH  059%=      5-min Rain = 0
KMC4 160825Z 13013KT 26/17 A2985 RMK A01 T02610173  RH  058%=      5-min Rain = 0
KMC4 160826Z 13014KT 26/17 A2985 RMK A01 T02610173  RH  058%=      5-min Rain = 0
KMC4 160827Z 14014KT 26/17 A2985 RMK A01 T02610173  RH  058%=      5-min Rain = 0
KMC4 160828Z 14013KT 26/17 A2985 RMK A01 T02620173  RH  058%=      5-min Rain = 0
KMC4 160829Z 13011KT 26/17 A2985 RMK A01 T02610174  RH  058%=      5-min Rain = 0
KMC4 160830Z 14013KT 26/17 A2985 RMK A01 T02620174  RH  058%=      5-min Rain = 0
KMC4 160831Z 13014KT 26/17 A2985 RMK A01 T02610174  RH  058%=      5-min Rain = 0
KMC4 160832Z 13013KT 26/17 A2985 RMK A01 T02620174  RH  058%=      5-min Rain = 0
KMC4 160833Z 14013KT 26/17 A2985 RMK A01 T02610174  RH  058%=      5-min Rain = 0
KMC4 160834Z 14013KT 26/17 A2985 RMK A01 T02610173  RH  058%=      5-min Rain = 0
KMC4 160835Z 14014KT 26/17 A2985 RMK A01 T02610173  RH  058%=      5-min Rain = 0
KMC4 160836Z 14016KT 26/17 A2985 RMK A01 T02610173  RH  059%=      5-min Rain = 0
KMC4 160837Z 14014KT 26/17 A2985 RMK A01 T02600173  RH  058%=      5-min Rain = 0
KMC4 160838Z 14013KT 26/17 A2985 RMK A01 T02610173  RH  058%=      5-min Rain = 0
KMC4 160839Z 14013KT 26/17 A2985 RMK A01 T02610173  RH  059%=      5-min Rain = 0
KMC4 160840Z 14014KT 26/17 A2985 RMK A01 T02600173  RH  059%=      5-min Rain = 0
KMC4 160841Z 14012KT 26/17 A2985 RMK A01 T02600173  RH  059%=      5-min Rain = 0
KMC4 160842Z 14013KT 26/17 A2985 RMK A01 T02600173  RH  059%=      5-min Rain = 0
KMC4 160843Z 15015KT 26/17 A2985 RMK A01 T02600173  RH  059%=      5-min Rain = 0
KMC4 160844Z 15015KT 26/17 A2985 RMK A01 T02600173  RH  059%=      5-min Rain = 0
KMC4 160845Z 15016G21KT 26/17 A2984 RMK A01 T02600173  RH  059%=      5-min Rain = 0
KMC4 160846Z 15015KT 26/17 A2984 RMK A01 T02610172  RH  058%=      5-min Rain = 0
KMC4 160847Z 14013KT 26/17 A2984 RMK A01 T02610173  RH  058%=      5-min Rain = 0
KMC4 160848Z 15017KT 26/17 A2984 RMK A01 T02610172  RH  058%=      5-min Rain = 0
KMC4 160849Z 14015KT 26/17 A2985 RMK A01 T02610172  RH  058%=      5-min Rain = 0
KMC4 160850Z 14015KT 26/17 A2985 RMK A01 T02610173  RH  058%=      5-min Rain = 0
KMC4 160851Z 15018KT 26/17 A2984 RMK A01 T02610173  RH  058%=      5-min Rain = 0
KMC4 160852Z 15016KT 26/17 A2984 RMK A01 T02620172  RH  058%=      5-min Rain = 0
KMC4 160853Z 14014KT 26/17 A2984 RMK A01 T02620172  RH  058%=      5-min Rain = 0
KMC4 160854Z 15012KT 26/17 A2984 RMK A01 T02620173  RH  058%=      5-min Rain = 0
KMC4 160855Z 14015KT 26/17 A2984 RMK A01 T02610173  RH  058%=      5-min Rain = 0
KMC4 160856Z 14013KT 26/17 A2984 RMK A01 T02610173  RH  058%=      5-min Rain = 0
KMC4 160857Z 14014KT 26/17 A2984 RMK A01 T02600172  RH  058%=      5-min Rain = 0
KMC4 160858Z 15015KT 26/17 A2984 RMK A01 T02600172  RH  058%=      5-min Rain = 0
KMC4 160859Z 14013KT 26/17 A2984 RMK A01 T02600173  RH  058%=      5-min Rain = 0
KMC4 160900Z 14015KT 26/17 A2984 RMK A01 T02600173  RH  059%=      5-min Rain = 0
KMC4 160901Z 15017KT 26/17 A2984 RMK A01 T02600172  RH  058%=      5-min Rain = 0
KMC4 160902Z 15015KT 26/17 A2984 RMK A01 T02600172  RH  058%=      5-min Rain = 0
KMC4 160903Z 14017KT 26/17 A2984 RMK A01 T02610172  RH  058%=      5-min Rain = 0
KMC4 160904Z 15017KT 26/17 A2984 RMK A01 T02610172  RH  058%=      5-min Rain = 0
KMC4 160905Z 14017KT 26/17 A2984 RMK A01 T02610172  RH  058%=      5-min Rain = 0
KMC4 160906Z 14016KT 26/17 A2984 RMK A01 T02610172  RH  058%=      5-min Rain = 0
KMC4 160907Z 14017KT 26/17 A2984 RMK A01 T02610172  RH  058%=      5-min Rain = 0
KMC4 160908Z 14016KT 26/17 A2984 RMK A01 T02620172  RH  058%=      5-min Rain = 0
KMC4 160909Z 15015KT 26/17 A2984 RMK A01 T02610172  RH  058%=      5-min Rain = 0
KMC4 160910Z 14015KT 26/17 A2984 RMK A01 T02610172  RH  058%=      5-min Rain = 0
KMC4 160911Z 14015KT 26/17 A2984 RMK A01 T02610173  RH  058%=      5-min Rain = 0
KMC4 160912Z 14014KT 26/17 A2984 RMK A01 T02600172  RH  058%=      5-min Rain = 0
KMC4 160913Z 15013G19KT 26/17 A2984 RMK A01 T02600173  RH  059%=      5-min Rain = 0
KMC4 160914Z 15016KT 26/17 A2984 RMK A01 T02590172  RH  059%=      5-min Rain = 0
KMC4 160915Z 14015KT 26/17 A2984 RMK A01 T02590172  RH  059%=      5-min Rain = 0
KMC4 160916Z 15014KT 26/17 A2984 RMK A01 T02590172  RH  059%=      5-min Rain = 0
KMC4 160917Z 14012KT 26/17 A2984 RMK A01 T02590173  RH  059%=      5-min Rain = 0
KMC4 160918Z 14015KT 26/17 A2984 RMK A01 T02590173  RH  059%=      5-min Rain = 0
KMC4 160919Z 14014KT 26/17 A2984 RMK A01 T02590173  RH  059%=      5-min Rain = 0
KMC4 160920Z 14013KT 26/17 A2984 RMK A01 T02590173  RH  059%=      5-min Rain = 0
KMC4 160921Z 14013KT 26/17 A2984 RMK A01 T02590173  RH  059%=      5-min Rain = 0
KMC4 160922Z 14011KT 26/17 A2984 RMK A01 T02590173  RH  059%=      5-min Rain = 0
KMC4 160923Z 14013KT 26/17 A2984 RMK A01 T02580173  RH  059%=      5-min Rain = 0
KMC4 160924Z 14012KT 26/17 A2984 RMK A01 T02580172  RH  059%=      5-min Rain = 0
KMC4 160925Z 15014KT 26/17 A2984 RMK A01 T02570172  RH  059%=      5-min Rain = 0
KMC4 160926Z 14012KT 26/17 A2984 RMK A01 T02570172  RH  059%=      5-min Rain = 0
KMC4 160927Z 14011KT 26/17 A2984 RMK A01 T02570172  RH  059%=      5-min Rain = 0
KMC4 160928Z 14012KT 26/17 A2984 RMK A01 T02570172  RH  059%=      5-min Rain = 0
KMC4 160929Z 14012KT 26/17 A2984 RMK A01 T02570172  RH  059%=      5-min Rain = 0
KMC4 160930Z 14011KT 26/17 A2984 RMK A01 T02570172  RH  059%=      5-min Rain = 0
KMC4 160931Z 13013KT 26/17 A2984 RMK A01 T02570172  RH  059%=      5-min Rain = 0
KMC4 160932Z 13013KT 26/17 A2984 RMK A01 T02570172  RH  059%=      5-min Rain = 0
KMC4 160933Z 13012KT 26/17 A2984 RMK A01 T02570172  RH  059%=      5-min Rain = 0
KMC4 160934Z 13012KT 26/17 A2984 RMK A01 T02580172  RH  059%=      5-min Rain = 0
KMC4 160935Z 13011KT 26/17 A2984 RMK A01 T02570172  RH  059%=      5-min Rain = 0
KMC4 160936Z 13012KT 26/17 A2984 RMK A01 T02570172  RH  059%=      5-min Rain = 0
KMC4 160937Z 14012KT 26/17 A2984 RMK A01 T02570172  RH  059%=      5-min Rain = 0
KMC4 160938Z 14009KT 26/17 A2984 RMK A01 T02570172  RH  059%=      5-min Rain = 0
KMC4 160939Z 13010KT 26/17 A2984 RMK A01 T02560172  RH  060%=      5-min Rain = 0
KMC4 160940Z 14012KT 26/17 A2984 RMK A01 T02570172  RH  060%=      5-min Rain = 0
KMC4 160941Z 14011KT 26/17 A2984 RMK A01 T02560172  RH  060%=      5-min Rain = 0
KMC4 160942Z 14013KT 26/17 A2984 RMK A01 T02570172  RH  060%=      5-min Rain = 0
KMC4 160943Z 14015KT 26/17 A2984 RMK A01 T02580173  RH  059%=      5-min Rain = 0
KMC4 160944Z 15014KT 26/17 A2984 RMK A01 T02580173  RH  059%=      5-min Rain = 0
KMC4 160945Z 14011KT 26/17 A2984 RMK A01 T02590173  RH  059%=      5-min Rain = 0
KMC4 160946Z 13010KT 26/17 A2984 RMK A01 T02590173  RH  059%=      5-min Rain = 0
KMC4 160947Z 15011KT 26/17 A2984 RMK A01 T02590173  RH  059%=      5-min Rain = 0
KMC4 160948Z 14012KT 26/17 A2984 RMK A01 T02580174  RH  060%=      5-min Rain = 0
KMC4 160949Z 14013KT 26/17 A2984 RMK A01 T02570174  RH  060%=      5-min Rain = 0
KMC4 160950Z 14010KT 26/17 A2984 RMK A01 T02570174  RH  060%=      5-min Rain = 0
KMC4 160951Z 14011G16KT 26/17 A2984 RMK A01 T02570174  RH  060%=      5-min Rain = 0
KMC4 160952Z 14014KT 26/18 A2984 RMK A01 T02570175  RH  061%=      5-min Rain = 0
KMC4 160953Z 14015G20KT 26/18 A2984 RMK A01 T02570176  RH  061%=      5-min Rain = 0
KMC4 160954Z 14014KT 26/18 A2984 RMK A01 T02570176  RH  061%=      5-min Rain = 0
KMC4 160955Z 13014KT 26/18 A2984 RMK A01 T02580176  RH  061%=      5-min Rain = 0
KMC4 160956Z 14013KT 26/18 A2984 RMK A01 T02580177  RH  061%=      5-min Rain = 0
KMC4 160957Z 14011KT 26/18 A2984 RMK A01 T02580177  RH  061%=      5-min Rain = 0
KMC4 160958Z 14014KT 26/18 A2984 RMK A01 T02570177  RH  061%=      5-min Rain = 0
KMC4 160959Z 13015KT 26/18 A2983 RMK A01 T02570178  RH  062%=      5-min Rain = 0
KMC4 161000Z 14013KT 26/18 A2983 RMK A01 T02570178  RH  062%=      5-min Rain = 0
KMC4 161001Z 14015KT 26/18 A2983 RMK A01 T02570178  RH  062%=      5-min Rain = 0
KMC4 161002Z 14010KT 26/18 A2984 RMK A01 T02570179  RH  062%=      5-min Rain = 0
KMC4 161003Z 12008KT 26/18 A2984 RMK A01 T02560179  RH  062%=      5-min Rain = 0
KMC4 161004Z 14008G14KT 26/18 A2984 RMK A01 T02560178  RH  062%=      5-min Rain = 0
KMC4 161005Z 15012KT 26/18 A2984 RMK A01 T02560180  RH  063%=      5-min Rain = 0
KMC4 161006Z 13009KT 26/18 A2984 RMK A01 T02550180  RH  063%=      5-min Rain = 0
KMC4 161007Z 14008KT 26/18 A2984 RMK A01 T02560180  RH  063%=      5-min Rain = 0
KMC4 161008Z 14009KT 26/18 A2984 RMK A01 T02550180  RH  063%=      5-min Rain = 0
KMC4 161009Z 15011KT 26/18 A2984 RMK A01 T02550180  RH  063%=      5-min Rain = 0
KMC4 161010Z 14010KT 25/18 A2984 RMK A01 T02540180  RH  064%=      5-min Rain = 0
KMC4 161011Z 13011G16KT 25/18 A2984 RMK A01 T02540181  RH  064%=      5-min Rain = 0
KMC4 161012Z 15014KT 25/18 A2984 RMK A01 T02540181  RH  064%=      5-min Rain = 0
KMC4 161013Z 15012KT 25/18 A2984 RMK A01 T02540181  RH  064%=      5-min Rain = 0
KMC4 161014Z 14011KT 26/18 A2984 RMK A01 T02550181  RH  064%=      5-min Rain = 0
KMC4 161015Z 15012G18KT 26/18 A2984 RMK A01 T02550182  RH  064%=      5-min Rain = 0
KMC4 161016Z 15013KT 26/18 A2984 RMK A01 T02550183  RH  064%=      5-min Rain = 0
KMC4 161017Z 14010KT 26/18 A2984 RMK A01 T02550183  RH  064%=      5-min Rain = 0
KMC4 161018Z 15013KT 25/18 A2984 RMK A01 T02540183  RH  064%=      5-min Rain = 0
KMC4 161019Z 15010KT 25/18 A2984 RMK A01 T02540183  RH  065%=      5-min Rain = 0
KMC4 161020Z 14011KT 25/18 A2984 RMK A01 T02540183  RH  065%=      5-min Rain = 0
KMC4 161021Z 16011KT 25/18 A2984 RMK A01 T02540183  RH  065%=      5-min Rain = 0
KMC4 161022Z 14011KT 25/18 A2984 RMK A01 T02540183  RH  065%=      5-min Rain = 0
KMC4 161023Z 15009KT 25/18 A2984 RMK A01 T02540184  RH  065%=      5-min Rain = 0
KMC4 161024Z 15011KT 25/18 A2984 RMK A01 T02530183  RH  065%=      5-min Rain = 0
KMC4 161025Z 15012G17KT 25/18 A2984 RMK A01 T02530184  RH  066%=      5-min Rain = 0
KMC4 161026Z 15015KT 25/19 A2984 RMK A01 T02530185  RH  066%=      5-min Rain = 0
KMC4 161027Z 15013KT 25/19 A2984 RMK A01 T02530185  RH  066%=      5-min Rain = 0
KMC4 161028Z 13012KT 25/18 A2984 RMK A01 T02530184  RH  066%=      5-min Rain = 0
KMC4 161029Z 14010KT 25/19 A2984 RMK A01 T02530185  RH  066%=      5-min Rain = 0
KMC4 161030Z 15012KT 25/19 A2984 RMK A01 T02520185  RH  066%=      5-min Rain = 0
KMC4 161031Z 13011KT 25/19 A2984 RMK A01 T02520185  RH  066%=      5-min Rain = 0
KMC4 161032Z 11008KT 25/19 A2984 RMK A01 T02520185  RH  066%=      5-min Rain = 0
KMC4 161033Z 11006KT 25/19 A2984 RMK A01 T02510185  RH  067%=      5-min Rain = 0
KMC4 161034Z 13009KT 25/19 A2984 RMK A01 T02510185  RH  067%=      5-min Rain = 0
KMC4 161035Z 14008KT 25/19 A2984 RMK A01 T02510185  RH  067%=      5-min Rain = 0
KMC4 161036Z 14009G14KT 25/19 A2984 RMK A01 T02510186  RH  067%=      5-min Rain = 0
KMC4 161037Z 14010KT 25/19 A2984 RMK A01 T02500186  RH  067%=      5-min Rain = 0
KMC4 161038Z 14009KT 25/19 A2984 RMK A01 T02500186  RH  067%=      5-min Rain = 0
KMC4 161039Z 13009KT 25/19 A2984 RMK A01 T02500186  RH  068%=      5-min Rain = 0
KMC4 161040Z 13010KT 25/19 A2984 RMK A01 T02500186  RH  068%=      5-min Rain = 0
KMC4 161041Z 13011KT 25/19 A2984 RMK A01 T02490186  RH  068%=      5-min Rain = 0
KMC4 161042Z 14012KT 25/19 A2984 RMK A01 T02500187  RH  068%=      5-min Rain = 0
KMC4 161043Z 14010KT 25/19 A2984 RMK A01 T02500187  RH  068%=      5-min Rain = 0
KMC4 161044Z 14009KT 25/19 A2984 RMK A01 T02500187  RH  068%=      5-min Rain = 0
KMC4 161045Z 14010KT 25/19 A2985 RMK A01 T02500187  RH  068%=      5-min Rain = 0
KMC4 161046Z 13010KT 25/19 A2984 RMK A01 T02500188  RH  069%=      5-min Rain = 0
KMC4 161047Z 13010KT 25/19 A2985 RMK A01 T02490188  RH  069%=      5-min Rain = 0
KMC4 161048Z 12007KT 25/19 A2985 RMK A01 T02490188  RH  069%=      5-min Rain = 0
KMC4 161049Z 10007KT 25/19 A2985 RMK A01 T02490188  RH  069%=      5-min Rain = 0
KMC4 161050Z 12008KT 25/19 A2985 RMK A01 T02490188  RH  069%=      5-min Rain = 0
KMC4 161051Z 11009KT 25/19 A2985 RMK A01 T02490188  RH  069%=      5-min Rain = 0
KMC4 161052Z 11008KT 25/19 A2985 RMK A01 T02490188  RH  069%=      5-min Rain = 0
KMC4 161053Z 13010KT 25/19 A2985 RMK A01 T02490188  RH  069%=      5-min Rain = 0
KMC4 161054Z 13009KT 25/19 A2985 RMK A01 T02490188  RH  069%=      5-min Rain = 0
KMC4 161055Z 12006KT 25/19 A2985 RMK A01 T02490188  RH  069%=      5-min Rain = 0
KMC4 161056Z 11008KT 25/19 A2985 RMK A01 T02490188  RH  069%=      5-min Rain = 0
KMC4 161057Z 10007KT 25/19 A2985 RMK A01 T02490188  RH  069%=      5-min Rain = 0
KMC4 161058Z 13010KT 25/19 A2985 RMK A01 T02490188  RH  069%=      5-min Rain = 0
KMC4 161059Z 12009KT 25/19 A2985 RMK A01 T02490188  RH  069%=      5-min Rain = 0
KMC4 161100Z 12008KT 25/19 A2985 RMK A01 T02490189  RH  069%=      5-min Rain = 0
KMC4 161101Z 13006KT 25/19 A2986 RMK A01 T02490189  RH  069%=      5-min Rain = 0
KMC4 161102Z 14006KT 25/19 A2986 RMK A01 T02480189  RH  070%=      5-min Rain = 0
KMC4 161103Z 12009KT 25/19 A2986 RMK A01 T02480189  RH  070%=      5-min Rain = 0
KMC4 161104Z 13007KT 25/19 A2986 RMK A01 T02480189  RH  070%=      5-min Rain = 0
KMC4 161105Z 12007KT 25/19 A2986 RMK A01 T02480189  RH  070%=      5-min Rain = 0
KMC4 161106Z 13009KT 25/19 A2986 RMK A01 T02480189  RH  070%=      5-min Rain = 0
KMC4 161107Z 14009KT 25/19 A2986 RMK A01 T02480189  RH  069%=      5-min Rain = 0
KMC4 161108Z 13007KT 25/19 A2986 RMK A01 T02490189  RH  069%=      5-min Rain = 0
KMC4 161109Z 14006KT 25/19 A2986 RMK A01 T02490189  RH  069%=      5-min Rain = 0
KMC4 161110Z 13005KT 25/19 A2986 RMK A01 T02490189  RH  069%=      5-min Rain = 0
KMC4 161111Z 14006KT 25/19 A2986 RMK A01 T02480189  RH  070%=      5-min Rain = 0
KMC4 161112Z 13007KT 25/19 A2986 RMK A01 T02480189  RH  070%=      5-min Rain = 0
KMC4 161113Z 14008KT 25/19 A2986 RMK A01 T02470189  RH  070%=      5-min Rain = 0
KMC4 161114Z 14008KT 25/19 A2986 RMK A01 T02470189  RH  070%=      5-min Rain = 0
KMC4 161115Z 15007KT 25/19 A2986 RMK A01 T02470189  RH  070%=      5-min Rain = 0
KMC4 161116Z 16010KT 25/19 A2986 RMK A01 T02470190  RH  071%=      5-min Rain = 0
KMC4 161117Z 16010KT 25/19 A2986 RMK A01 T02460189  RH  071%=      5-min Rain = 0
KMC4 161118Z 17008KT 25/19 A2986 RMK A01 T02470190  RH  071%=      5-min Rain = 0
KMC4 161119Z 18009KT 25/19 A2985 RMK A01 T02460190  RH  071%=      5-min Rain = 0
KMC4 161120Z 17011KT 25/19 A2985 RMK A01 T02460190  RH  071%=      5-min Rain = 0
KMC4 161121Z 18010KT 25/19 A2985 RMK A01 T02460190  RH  071%=      5-min Rain = 0
KMC4 161122Z 17011KT 25/19 A2985 RMK A01 T02460190  RH  071%=      5-min Rain = 0
KMC4 161123Z 17009KT 25/19 A2985 RMK A01 T02460190  RH  071%=      5-min Rain = 0
KMC4 161124Z 18009KT 25/19 A2985 RMK A01 T02460190  RH  071%=      5-min Rain = 0
KMC4 161125Z 17012KT 25/19 A2985 RMK A01 T02460190  RH  071%=      5-min Rain = 0
KMC4 161126Z 17013KT 25/19 A2985 RMK A01 T02460190  RH  071%=      5-min Rain = 0
KMC4 161127Z 17012KT 25/19 A2985 RMK A01 T02460190  RH  071%=      5-min Rain = 0
KMC4 161128Z 17012G17KT 25/19 A2985 RMK A01 T02460191  RH  071%=      5-min Rain = 0
KMC4 161129Z 17014KT 25/19 A2985 RMK A01 T02460190  RH  071%=      5-min Rain = 0
KMC4 161130Z 17011KT 25/19 A2985 RMK A01 T02460191  RH  071%=      5-min Rain = 0
KMC4 161131Z 17010KT 25/19 A2985 RMK A01 T02460191  RH  072%=      5-min Rain = 0
KMC4 161132Z 17007KT 25/19 A2985 RMK A01 T02460191  RH  072%=      5-min Rain = 0
KMC4 161133Z 17008KT 25/19 A2986 RMK A01 T02450191  RH  072%=      5-min Rain = 0
KMC4 161134Z 16007KT 25/19 A2986 RMK A01 T02450191  RH  072%=      5-min Rain = 0
KMC4 161135Z 14004KT 25/19 A2986 RMK A01 T02450191  RH  072%=      5-min Rain = 0
KMC4 161136Z 14006KT 24/19 A2986 RMK A01 T02440191  RH  072%=      5-min Rain = 0
KMC4 161137Z 09005KT 24/19 A2986 RMK A01 T02440191  RH  072%=      5-min Rain = 0
KMC4 161138Z 07004KT 24/19 A2986 RMK A01 T02440191  RH  072%=      5-min Rain = 0
KMC4 161139Z 05005KT 24/19 A2986 RMK A01 T02440191  RH  072%=      5-min Rain = 0
KMC4 161140Z 05005KT 24/19 A2986 RMK A01 T02440191  RH  072%=      5-min Rain = 0
KMC4 161141Z 04006KT 24/19 A2986 RMK A01 T02430191  RH  072%=      5-min Rain = 0
KMC4 161142Z 05005KT 24/19 A2986 RMK A01 T02430191  RH  073%=      5-min Rain = 0
KMC4 161143Z 05005KT 24/19 A2986 RMK A01 T02420190  RH  073%=      5-min Rain = 0
KMC4 161144Z 07005KT 24/19 A2986 RMK A01 T02430191  RH  073%=      5-min Rain = 0
KMC4 161145Z 07007KT 24/19 A2986 RMK A01 T02430191  RH  073%=      5-min Rain = 0
KMC4 161146Z 10006KT 24/19 A2986 RMK A01 T02420191  RH  073%=      5-min Rain = 0
KMC4 161147Z 10006KT 24/19 A2986 RMK A01 T02430191  RH  073%=      5-min Rain = 0
KMC4 161148Z 10005KT 24/19 A2986 RMK A01 T02430191  RH  073%=      5-min Rain = 0
KMC4 161149Z 10004KT 24/19 A2987 RMK A01 T02420191  RH  073%=      5-min Rain = 0
KMC4 161150Z 09003KT 24/19 A2987 RMK A01 T02420191  RH  073%=      5-min Rain = 0
KMC4 161151Z 09004KT 24/19 A2987 RMK A01 T02420191  RH  073%=      5-min Rain = 0
KMC4 161152Z 10005KT 24/19 A2987 RMK A01 T02410190  RH  073%=      5-min Rain = 0
KMC4 161153Z 13005KT 24/19 A2987 RMK A01 T02420190  RH  073%=      5-min Rain = 0
KMC4 161154Z 13008KT 24/19 A2987 RMK A01 T02420190  RH  073%=      5-min Rain = 0
KMC4 161155Z 16009KT 24/19 A2987 RMK A01 T02420190  RH  073%=      5-min Rain = 0
KMC4 161156Z 16009KT 24/19 A2986 RMK A01 T02420190  RH  073%=      5-min Rain = 0
KMC4 161157Z 16008KT 24/19 A2986 RMK A01 T02420191  RH  073%=      5-min Rain = 0
KMC4 161158Z 16009KT 24/19 A2986 RMK A01 T02410190  RH  073%=      5-min Rain = 0
KMC4 161159Z 17010KT 24/19 A2986 RMK A01 T02410191  RH  074%=      5-min Rain = 0
KMC4 161200Z 17009KT 24/19 A2986 RMK A01 T02400190  RH  074%=      5-min Rain = 0
KMC4 161201Z 18010KT 24/19 A2986 RMK A01 T02400190  RH  074%=      5-min Rain = 0
KMC4 161202Z 16012KT 24/19 A2986 RMK A01 T02400190  RH  074%=      5-min Rain = 0
KMC4 161203Z 17011KT 24/19 A2986 RMK A01 T02410191  RH  073%=      5-min Rain = 0
KMC4 161204Z 17010KT 24/19 A2986 RMK A01 T02420191  RH  073%=      5-min Rain = 0
KMC4 161205Z 17010KT 24/19 A2986 RMK A01 T02420191  RH  073%=      5-min Rain = 0
KMC4 161206Z 18009KT 24/19 A2986 RMK A01 T02420191  RH  073%=      5-min Rain = 0
KMC4 161207Z 18010KT 24/19 A2986 RMK A01 T02410191  RH  073%=      5-min Rain = 0
KMC4 161208Z 17010KT 24/19 A2986 RMK A01 T02410191  RH  074%=      5-min Rain = 0
KMC4 161209Z 17009KT 24/19 A2986 RMK A01 T02410191  RH  074%=      5-min Rain = 0
KMC4 161210Z 16008KT 24/19 A2986 RMK A01 T02410191  RH  074%=      5-min Rain = 0
KMC4 161211Z 17008KT 24/19 A2986 RMK A01 T02400191  RH  074%=      5-min Rain = 0
KMC4 161212Z 16009KT 24/19 A2986 RMK A01 T02400191  RH  074%=      5-min Rain = 0
KMC4 161213Z 16007KT 24/19 A2986 RMK A01 T02400191  RH  074%=      5-min Rain = 0
KMC4 161214Z 15007KT 24/19 A2987 RMK A01 T02400191  RH  074%=      5-min Rain = 0
KMC4 161215Z 16008KT 24/19 A2987 RMK A01 T02400192  RH  074%=      5-min Rain = 0
KMC4 161216Z 14006KT 24/19 A2987 RMK A01 T02410191  RH  074%=      5-min Rain = 0
KMC4 161217Z 11005KT 24/19 A2987 RMK A01 T02410191  RH  074%=      5-min Rain = 0
KMC4 161218Z 09003KT 24/19 A2987 RMK A01 T02420191  RH  074%=      5-min Rain = 0
KMC4 161219Z 12006KT 24/19 A2987 RMK A01 T02420191  RH  073%=      5-min Rain = 0
KMC4 161220Z 13005KT 24/19 A2987 RMK A01 T02420191  RH  073%=      5-min Rain = 0
KMC4 161221Z 14007KT 24/19 A2987 RMK A01 T02420192  RH  074%=      5-min Rain = 0
KMC4 161222Z 12005KT 24/19 A2987 RMK A01 T02420192  RH  073%=      5-min Rain = 0
KMC4 161223Z 08004KT 24/19 A2987 RMK A01 T02420192  RH  073%=      5-min Rain = 0
KMC4 161224Z 06005KT 24/19 A2987 RMK A01 T02420192  RH  073%=      5-min Rain = 0
KMC4 161225Z 06004KT 24/19 A2987 RMK A01 T02430192  RH  074%=      5-min Rain = 0
KMC4 161226Z 06004KT 24/19 A2987 RMK A01 T02420193  RH  074%=      5-min Rain = 0
KMC4 161227Z 07005KT 24/19 A2987 RMK A01 T02420193  RH  074%=      5-min Rain = 0
KMC4 161228Z 07006KT 24/19 A2987 RMK A01 T02420193  RH  074%=      5-min Rain = 0
KMC4 161229Z 09005KT 24/19 A2987 RMK A01 T02420193  RH  074%=      5-min Rain = 0
KMC4 161230Z 09004KT 24/19 A2987 RMK A01 T02410193  RH  074%=      5-min Rain = 0
KMC4 161231Z 09005KT 24/19 A2987 RMK A01 T02420193  RH  074%=      5-min Rain = 0
KMC4 161232Z 10006KT 24/19 A2987 RMK A01 T02420193  RH  074%=      5-min Rain = 0
KMC4 161233Z 11007KT 24/19 A2987 RMK A01 T02420193  RH  074%=      5-min Rain = 0
KMC4 161234Z 12007KT 24/19 A2987 RMK A01 T02430193  RH  074%=      5-min Rain = 0
KMC4 161235Z 12007KT 24/19 A2987 RMK A01 T02430193  RH  073%=      5-min Rain = 0
KMC4 161236Z 14007KT 24/19 A2987 RMK A01 T02440193  RH  073%=      5-min Rain = 0
KMC4 161237Z 15008KT 24/19 A2987 RMK A01 T02440193  RH  073%=      5-min Rain = 0
KMC4 161238Z 16009KT 24/19 A2987 RMK A01 T02440194  RH  073%=      5-min Rain = 0
KMC4 161239Z 16008KT 24/19 A2987 RMK A01 T02440194  RH  074%=      5-min Rain = 0
KMC4 161240Z 16008KT 24/20 A2987 RMK A01 T02440195  RH  074%=      5-min Rain = 0
KMC4 161241Z 17009KT 24/19 A2987 RMK A01 T02430194  RH  074%=      5-min Rain = 0
KMC4 161242Z 16009KT 24/20 A2987 RMK A01 T02430195  RH  074%=      5-min Rain = 0
KMC4 161243Z 16009KT 24/20 A2987 RMK A01 T02430195  RH  074%=      5-min Rain = 0
KMC4 161244Z 16010KT 24/20 A2987 RMK A01 T02430195  RH  074%=      5-min Rain = 0
KMC4 161245Z 16009KT 24/20 A2987 RMK A01 T02430195  RH  074%=      5-min Rain = 0
KMC4 161246Z 16011KT 24/20 A2987 RMK A01 T02430195  RH  074%=      5-min Rain = 0
KMC4 161247Z 17009KT 24/20 A2987 RMK A01 T02430195  RH  074%=      5-min Rain = 0
KMC4 161248Z 17008KT 24/20 A2987 RMK A01 T02430195  RH  075%=      5-min Rain = 0
KMC4 161249Z 17008KT 24/20 A2987 RMK A01 T02430195  RH  075%=      5-min Rain = 0
KMC4 161250Z 17008KT 24/20 A2988 RMK A01 T02430195  RH  075%=      5-min Rain = 0
KMC4 161251Z 17008KT 24/20 A2988 RMK A01 T02430195  RH  075%=      5-min Rain = 0
KMC4 161252Z 18008KT 24/20 A2988 RMK A01 T02430196  RH  075%=      5-min Rain = 0
KMC4 161253Z 17007KT 24/20 A2988 RMK A01 T02430196  RH  075%=      5-min Rain = 0
KMC4 161254Z 18006KT 24/20 A2988 RMK A01 T02440197  RH  075%=      5-min Rain = 0
KMC4 161255Z 17007KT 24/20 A2988 RMK A01 T02440196  RH  075%=      5-min Rain = 0
KMC4 161256Z 17009KT 24/20 A2988 RMK A01 T02440196  RH  075%=      5-min Rain = 0
KMC4 161257Z 17008KT 24/20 A2988 RMK A01 T02440196  RH  075%=      5-min Rain = 0
KMC4 161258Z 17007KT 25/20 A2988 RMK A01 T02450196  RH  074%=      5-min Rain = 0
KMC4 161259Z 17009KT 25/20 A2988 RMK A01 T02450196  RH  074%=      5-min Rain = 0
KMC4 161300Z 16008KT 25/20 A2988 RMK A01 T02450196  RH  074%=      5-min Rain = 0
KMC4 161301Z 17006KT 25/20 A2988 RMK A01 T02450196  RH  074%=      5-min Rain = 0
KMC4 161302Z 17005KT 25/20 A2988 RMK A01 T02450197  RH  075%=      5-min Rain = 0
KMC4 161303Z 16008KT 25/20 A2987 RMK A01 T02450197  RH  074%=      5-min Rain = 0
KMC4 161304Z 16011KT 25/20 A2987 RMK A01 T02460197  RH  074%=      5-min Rain = 0
KMC4 161305Z 16011KT 25/20 A2987 RMK A01 T02460196  RH  074%=      5-min Rain = 0
KMC4 161306Z 17011KT 25/20 A2987 RMK A01 T02460196  RH  074%=      5-min Rain = 0
KMC4 161307Z 16010KT 25/20 A2987 RMK A01 T02460196  RH  074%=      5-min Rain = 0
KMC4 161308Z 17009KT 25/20 A2987 RMK A01 T02460196  RH  074%=      5-min Rain = 0
KMC4 161309Z 17008KT 25/20 A2987 RMK A01 T02460196  RH  074%=      5-min Rain = 0
KMC4 161310Z 16009KT 25/20 A2987 RMK A01 T02460197  RH  074%=      5-min Rain = 0
KMC4 161311Z 17009KT 25/20 A2987 RMK A01 T02470197  RH  074%=      5-min Rain = 0
KMC4 161312Z 16010KT 25/20 A2988 RMK A01 T02470196  RH  073%=      5-min Rain = 0
KMC4 161313Z 17009KT 25/20 A2988 RMK A01 T02470196  RH  073%=      5-min Rain = 0
KMC4 161314Z 16010KT 25/20 A2988 RMK A01 T02470196  RH  073%=      5-min Rain = 0
KMC4 161315Z 17009KT 25/20 A2988 RMK A01 T02470196  RH  073%=      5-min Rain = 0
KMC4 161316Z 17007KT 25/20 A2988 RMK A01 T02480197  RH  073%=      5-min Rain = 0
KMC4 161317Z 17007KT 25/20 A2988 RMK A01 T02490197  RH  073%=      5-min Rain = 0
KMC4 161318Z 17008KT 25/20 A2988 RMK A01 T02500198  RH  073%=      5-min Rain = 0
KMC4 161319Z 17010KT 25/20 A2988 RMK A01 T02500197  RH  073%=      5-min Rain = 0
KMC4 161320Z 17008KT 25/20 A2988 RMK A01 T02490198  RH  073%=      5-min Rain = 0
KMC4 161321Z 15009KT 25/20 A2988 RMK A01 T02500198  RH  073%=      5-min Rain = 0
KMC4 161322Z 16010KT 25/20 A2988 RMK A01 T02500198  RH  073%=      5-min Rain = 0
KMC4 161323Z 16010KT 25/20 A2988 RMK A01 T02510197  RH  072%=      5-min Rain = 0
KMC4 161324Z 15013KT 25/20 A2988 RMK A01 T02510197  RH  072%=      5-min Rain = 0
KMC4 161325Z 15011KT 25/20 A2988 RMK A01 T02510197  RH  072%=      5-min Rain = 0
KMC4 161326Z 15011KT 25/20 A2988 RMK A01 T02510197  RH  072%=      5-min Rain = 0
KMC4 161327Z 16010KT 25/20 A2988 RMK A01 T02510197  RH  072%=      5-min Rain = 0
KMC4 161328Z 17011KT 25/20 A2988 RMK A01 T02510197  RH  072%=      5-min Rain = 0
KMC4 161329Z 16009KT 25/20 A2988 RMK A01 T02520197  RH  072%=      5-min Rain = 0
KMC4 161330Z 17012KT 25/20 A2988 RMK A01 T02520197  RH  071%=      5-min Rain = 0
KMC4 161331Z 17011KT 25/20 A2988 RMK A01 T02520197  RH  071%=      5-min Rain = 0
KMC4 161332Z 17012KT 25/20 A2988 RMK A01 T02520197  RH  071%=      5-min Rain = 0
KMC4 161333Z 16013KT 25/20 A2988 RMK A01 T02520197  RH  071%=      5-min Rain = 0
KMC4 161334Z 17011KT 25/20 A2988 RMK A01 T02520198  RH  072%=      5-min Rain = 0
KMC4 161335Z 17012KT 25/20 A2988 RMK A01 T02520197  RH  072%=      5-min Rain = 0
KMC4 161336Z 16012KT 25/20 A2988 RMK A01 T02520198  RH  072%=      5-min Rain = 0
KMC4 161337Z 16012KT 25/20 A2988 RMK A01 T02520197  RH  072%=      5-min Rain = 0
KMC4 161338Z 17010KT 25/20 A2988 RMK A01 T02520198  RH  072%=      5-min Rain = 0
KMC4 161339Z 16011KT 25/20 A2988 RMK A01 T02530199  RH  072%=      5-min Rain = 0
KMC4 161340Z 17011KT 25/20 A2988 RMK A01 T02530198  RH  072%=      5-min Rain = 0
KMC4 161341Z 17012KT 25/20 A2988 RMK A01 T02530198  RH  072%=      5-min Rain = 0
KMC4 161342Z 16012KT 25/20 A2988 RMK A01 T02530198  RH  072%=      5-min Rain = 0
KMC4 161343Z 16012KT 25/20 A2989 RMK A01 T02530198  RH  071%=      5-min Rain = 0
KMC4 161344Z 16013KT 25/20 A2989 RMK A01 T02530197  RH  071%=      5-min Rain = 0
KMC4 161345Z 17011KT 25/20 A2989 RMK A01 T02530198  RH  072%=      5-min Rain = 0
KMC4 161346Z 17013KT 25/20 A2989 RMK A01 T02530198  RH  071%=      5-min Rain = 0
KMC4 161347Z 17011KT 25/20 A2989 RMK A01 T02530197  RH  071%=      5-min Rain = 0
KMC4 161348Z 17013KT 25/20 A2989 RMK A01 T02530198  RH  072%=      5-min Rain = 0
KMC4 161349Z 16013KT 25/20 A2989 RMK A01 T02530198  RH  071%=      5-min Rain = 0
KMC4 161350Z 16010KT 25/20 A2989 RMK A01 T02530197  RH  071%=      5-min Rain = 0
KMC4 161351Z 16010KT 25/20 A2989 RMK A01 T02530198  RH  072%=      5-min Rain = 0
KMC4 161352Z 17010KT 25/20 A2989 RMK A01 T02540198  RH  071%=      5-min Rain = 0
KMC4 161353Z 16010KT 26/20 A2989 RMK A01 T02550199  RH  071%=      5-min Rain = 0
KMC4 161354Z 15011KT 26/20 A2989 RMK A01 T02550198  RH  071%=      5-min Rain = 0
KMC4 161355Z 16011KT 26/20 A2989 RMK A01 T02560199  RH  071%=      5-min Rain = 0
KMC4 161356Z 16010KT 26/20 A2989 RMK A01 T02560199  RH  071%=      5-min Rain = 0
KMC4 161357Z 17011KT 26/20 A2989 RMK A01 T02560200  RH  071%=      5-min Rain = 0
KMC4 161358Z 17011KT 26/20 A2989 RMK A01 T02570199  RH  071%=      5-min Rain = 0
KMC4 161359Z 17011KT 26/20 A2989 RMK A01 T02560198  RH  070%=      5-min Rain = 0
KMC4 161400Z 17011KT 26/20 A2989 RMK A01 T02560199  RH  070%=      5-min Rain = 0
KMC4 161401Z 17011KT 26/20 A2989 RMK A01 T02570199  RH  071%=      5-min Rain = 0
KMC4 161402Z 16012KT 26/20 A2989 RMK A01 T02560199  RH  070%=      5-min Rain = 0
KMC4 161403Z 16011KT 26/20 A2989 RMK A01 T02560198  RH  070%=      5-min Rain = 0
KMC4 161404Z 18012KT 26/20 A2989 RMK A01 T02570198  RH  070%=      5-min Rain = 0
KMC4 161405Z 17010KT 26/20 A2989 RMK A01 T02570198  RH  070%=      5-min Rain = 0
KMC4 161406Z 17012KT 26/20 A2989 RMK A01 T02560198  RH  070%=      5-min Rain = 0
KMC4 161407Z 17009KT 26/20 A2989 RMK A01 T02560198  RH  070%=      5-min Rain = 0
KMC4 161408Z 17010KT 26/20 A2989 RMK A01 T02570199  RH  070%=      5-min Rain = 0
KMC4 161409Z 17010KT 26/20 A2989 RMK A01 T02580199  RH  070%=      5-min Rain = 0
KMC4 161410Z 18010KT 26/20 A2989 RMK A01 T02590200  RH  070%=      5-min Rain = 0
KMC4 161411Z 19011KT 26/20 A2989 RMK A01 T02600199  RH  069%=      5-min Rain = 0
KMC4 161412Z 18010KT 26/20 A2989 RMK A01 T02600199  RH  069%=      5-min Rain = 0
KMC4 161413Z 18010KT 26/20 A2989 RMK A01 T02610200  RH  069%=      5-min Rain = 0
KMC4 161414Z 19009KT 26/20 A2989 RMK A01 T02610199  RH  068%=      5-min Rain = 0
KMC4 161415Z 18009KT 26/20 A2989 RMK A01 T02610199  RH  069%=      5-min Rain = 0
KMC4 161416Z 19009KT 26/20 A2989 RMK A01 T02610201  RH  070%=      5-min Rain = 0
KMC4 161417Z 19010KT 26/20 A2989 RMK A01 T02630201  RH  069%=      5-min Rain = 0
KMC4 161418Z 17011KT 26/20 A2989 RMK A01 T02630201  RH  068%=      5-min Rain = 0
KMC4 161419Z 18010KT 26/20 A2989 RMK A01 T02620200  RH  068%=      5-min Rain = 0
KMC4 161420Z 19012KT 26/20 A2989 RMK A01 T02620199  RH  068%=      5-min Rain = 0
KMC4 161421Z 19012KT 26/20 A2989 RMK A01 T02630200  RH  068%=      5-min Rain = 0
KMC4 161422Z 18013KT 26/20 A2989 RMK A01 T02630198  RH  067%=      5-min Rain = 0
KMC4 161423Z 19014KT 26/20 A2989 RMK A01 T02630198  RH  068%=      5-min Rain = 0
KMC4 161424Z 18014KT 26/20 A2989 RMK A01 T02610198  RH  068%=      5-min Rain = 0
KMC4 161425Z 18014KT 26/20 A2989 RMK A01 T02600198  RH  069%=      5-min Rain = 0
KMC4 161426Z 18014KT 26/20 A2989 RMK A01 T02600198  RH  069%=      5-min Rain = 0
KMC4 161427Z 18013KT 26/20 A2989 RMK A01 T02600198  RH  069%=      5-min Rain = 0
KMC4 161428Z 18013KT 26/20 A2989 RMK A01 T02600199  RH  069%=      5-min Rain = 0
KMC4 161429Z 19014KT 26/20 A2989 RMK A01 T02600199  RH  069%=      5-min Rain = 0
KMC4 161430Z 18012KT 26/20 A2989 RMK A01 T02600197  RH  068%=      5-min Rain = 0
KMC4 161431Z 18012KT 26/20 A2989 RMK A01 T02600198  RH  069%=      5-min Rain = 0
KMC4 161432Z 18012KT 26/20 A2989 RMK A01 T02600199  RH  069%=      5-min Rain = 0
KMC4 161433Z 18011KT 26/20 A2989 RMK A01 T02610199  RH  068%=      5-min Rain = 0
KMC4 161434Z 17011KT 26/20 A2989 RMK A01 T02620200  RH  069%=      5-min Rain = 0
KMC4 161435Z 18012KT 26/20 A2989 RMK A01 T02620200  RH  069%=      5-min Rain = 0
KMC4 161436Z 18013KT 26/20 A2989 RMK A01 T02620200  RH  068%=      5-min Rain = 0
KMC4 161437Z 18011KT 26/20 A2989 RMK A01 T02610200  RH  069%=      5-min Rain = 0
KMC4 161438Z 18009KT 26/20 A2989 RMK A01 T02610199  RH  069%=      5-min Rain = 0
KMC4 161439Z 17011KT 26/20 A2989 RMK A01 T02630200  RH  068%=      5-min Rain = 0
KMC4 161440Z 19012KT 26/20 A2989 RMK A01 T02640200  RH  068%=      5-min Rain = 0
KMC4 161441Z 19013KT 27/20 A2989 RMK A01 T02650199  RH  067%=      5-min Rain = 0
KMC4 161442Z 18011KT 27/20 A2989 RMK A01 T02650199  RH  067%=      5-min Rain = 0
KMC4 161443Z 18009KT 27/20 A2989 RMK A01 T02650200  RH  068%=      5-min Rain = 0
KMC4 161444Z 17010KT 27/20 A2989 RMK A01 T02650199  RH  067%=      5-min Rain = 0
KMC4 161445Z 19009KT 27/20 A2989 RMK A01 T02660200  RH  067%=      5-min Rain = 0
KMC4 161446Z 19009KT 27/20 A2989 RMK A01 T02660199  RH  067%=      5-min Rain = 0
KMC4 161447Z 19010KT 27/20 A2989 RMK A01 T02660200  RH  067%=      5-min Rain = 0
KMC4 161448Z 17009KT 27/20 A2989 RMK A01 T02670201  RH  067%=      5-min Rain = 0
KMC4 161449Z 18010KT 27/20 A2989 RMK A01 T02690201  RH  066%=      5-min Rain = 0
KMC4 161450Z 18008KT 27/20 A2989 RMK A01 T02690201  RH  066%=      5-min Rain = 0
KMC4 161451Z 18011KT 27/20 A2989 RMK A01 T02700200  RH  066%=      5-min Rain = 0
KMC4 161452Z 18010KT 27/20 A2989 RMK A01 T02700200  RH  066%=      5-min Rain = 0
KMC4 161453Z 19012KT 27/20 A2989 RMK A01 T02690200  RH  066%=      5-min Rain = 0
KMC4 161454Z 19010KT 27/20 A2989 RMK A01 T02700198  RH  065%=      5-min Rain = 0
KMC4 161455Z 20011KT 27/20 A2989 RMK A01 T02690199  RH  065%=      5-min Rain = 0
KMC4 161456Z 19010KT 27/20 A2989 RMK A01 T02700198  RH  065%=      5-min Rain = 0
KMC4 161457Z 18010KT 27/20 A2989 RMK A01 T02700199  RH  065%=      5-min Rain = 0
KMC4 161458Z 19009KT 27/20 A2989 RMK A01 T02700199  RH  065%=      5-min Rain = 0
KMC4 161459Z 20008KT 27/20 A2989 RMK A01 T02720199  RH  064%=      5-min Rain = 0
KMC4 161500Z 18010KT 27/20 A2989 RMK A01 T02740200  RH  064%=      5-min Rain = 0
KMC4 161501Z 18010KT 27/20 A2989 RMK A01 T02740202  RH  065%=      5-min Rain = 0
KMC4 161502Z 18011KT 27/20 A2989 RMK A01 T02740199  RH  064%=      5-min Rain = 0
KMC4 161503Z 18009KT 27/20 A2989 RMK A01 T02740199  RH  063%=      5-min Rain = 0
KMC4 161504Z 18010KT 27/20 A2989 RMK A01 T02740200  RH  064%=      5-min Rain = 0
KMC4 161505Z 18011KT 28/20 A2989 RMK A01 T02750200  RH  064%=      5-min Rain = 0
KMC4 161506Z 20011KT 28/20 A2989 RMK A01 T02770197  RH  062%=      5-min Rain = 0
KMC4 161507Z 20010KT 28/19 A2989 RMK A01 T02770193  RH  060%=      5-min Rain = 0
KMC4 161508Z 21010KT 28/20 A2989 RMK A01 T02770197  RH  062%=      5-min Rain = 0
KMC4 161509Z 22012KT 28/17 A2989 RMK A01 T02790171  RH  052%=      5-min Rain = 0
KMC4 161510Z 23012KT 28/14 A2989 RMK A01 T02810136  RH  041%=      5-min Rain = 0
KMC4 161511Z 24012KT 28/13 A2989 RMK A01 T02810131  RH  040%=      5-min Rain = 0
KMC4 161512Z 25012KT 28/13 A2989 RMK A01 T02800132  RH  040%=      5-min Rain = 0
KMC4 161513Z 26012KT 28/13 A2989 RMK A01 T02800132  RH  040%=      5-min Rain = 0
KMC4 161514Z 25014KT 28/13 A2988 RMK A01 T02810131  RH  040%=      5-min Rain = 0
KMC4 161515Z 25013KT 28/13 A2989 RMK A01 T02810128  RH  039%=      5-min Rain = 0
KMC4 161516Z 25012KT 28/13 A2989 RMK A01 T02790130  RH  040%=      5-min Rain = 0
KMC4 161517Z 24012KT 28/13 A2989 RMK A01 T02800129  RH  039%=      5-min Rain = 0
KMC4 161518Z 24015KT 28/13 A2989 RMK A01 T02810127  RH  039%=      5-min Rain = 0
KMC4 161519Z 25014KT 28/12 A2989 RMK A01 T02790124  RH  038%=      5-min Rain = 0
KMC4 161520Z 24012KT 28/13 A2989 RMK A01 T02780127  RH  039%=      5-min Rain = 0
KMC4 161521Z 25015KT 28/13 A2989 RMK A01 T02790125  RH  038%=      5-min Rain = 0
KMC4 161522Z 25013KT 28/12 A2989 RMK A01 T02790124  RH  038%=      5-min Rain = 0
KMC4 161523Z 25014KT 28/12 A2989 RMK A01 T02770123  RH  039%=      5-min Rain = 0
KMC4 161524Z 25015KT 28/12 A2989 RMK A01 T02770122  RH  038%=      5-min Rain = 0
KMC4 161525Z 25013KT 28/12 A2989 RMK A01 T02770122  RH  038%=      5-min Rain = 0
KMC4 161526Z 24012KT 28/12 A2989 RMK A01 T02770121  RH  038%=      5-min Rain = 0
KMC4 161527Z 24012KT 28/12 A2989 RMK A01 T02790121  RH  038%=      5-min Rain = 0
KMC4 161528Z 24014KT 28/12 A2989 RMK A01 T02800122  RH  038%=      5-min Rain = 0
KMC4 161529Z 24015KT 28/12 A2989 RMK A01 T02790121  RH  038%=      5-min Rain = 0
KMC4 161530Z 25012KT 28/12 A2989 RMK A01 T02770120  RH  038%=      5-min Rain = 0
KMC4 161531Z 27013KT 28/12 A2989 RMK A01 T02770122  RH  038%=      5-min Rain = 0
KMC4 161532Z 26013KT 28/12 A2989 RMK A01 T02770119  RH  037%=      5-min Rain = 0
KMC4 161533Z 26013KT 28/12 A2989 RMK A01 T02760121  RH  038%=      5-min Rain = 0
KMC4 161534Z 24013KT 28/12 A2989 RMK A01 T02760121  RH  038%=      5-min Rain = 0
KMC4 161535Z 26011KT 28/12 A2989 RMK A01 T02760123  RH  039%=      5-min Rain = 0
KMC4 161536Z 27012KT 28/12 A2989 RMK A01 T02780120  RH  037%=      5-min Rain = 0
KMC4 161537Z 28013KT 28/12 A2989 RMK A01 T02770116  RH  037%=      5-min Rain = 0
KMC4 161538Z 28011KT 28/12 A2989 RMK A01 T02770119  RH  037%=      5-min Rain = 0
KMC4 161539Z 27011KT 28/12 A2989 RMK A01 T02800122  RH  038%=      5-min Rain = 0
KMC4 161540Z 26013KT 28/12 A2989 RMK A01 T02800122  RH  038%=      5-min Rain = 0
KMC4 161541Z 26013KT 28/12 A2989 RMK A01 T02800122  RH  037%=      5-min Rain = 0
KMC4 161542Z 26012KT 28/12 A2989 RMK A01 T02810120  RH  037%=      5-min Rain = 0
KMC4 161543Z 25011KT 28/12 A2989 RMK A01 T02790119  RH  037%=      5-min Rain = 0
KMC4 161544Z 27010KT 28/12 A299 RMK A01 T02770121  RH  038%=      5-min Rain = 0
KMC4 161545Z 26010KT 28/12 A2989 RMK A01 T02770120  RH  038%=      5-min Rain = 0
KMC4 161546Z 24011KT 28/12 A2989 RMK A01 T02770120  RH  038%=      5-min Rain = 0
KMC4 161547Z 25011KT 28/12 A2989 RMK A01 T02790116  RH  036%=      5-min Rain = 0
KMC4 161548Z 24011KT 28/12 A2989 RMK A01 T02790119  RH  037%=      5-min Rain = 0
KMC4 161549Z 26008KT 28/12 A2989 RMK A01 T02790118  RH  037%=      5-min Rain = 0
KMC4 161550Z 25008KT 28/12 A2989 RMK A01 T02790121  RH  038%=      5-min Rain = 0
KMC4 161551Z 23010KT 28/12 A2989 RMK A01 T02810119  RH  037%=      5-min Rain = 0
KMC4 161552Z 24011KT 28/12 A2989 RMK A01 T02810116  RH  036%=      5-min Rain = 0
KMC4 161553Z 26011KT 28/11 A2989 RMK A01 T02810113  RH  035%=      5-min Rain = 0
KMC4 161554Z 25009KT 28/11 A2989 RMK A01 T02800113  RH  036%=      5-min Rain = 0
KMC4 161555Z 26010KT 28/12 A2989 RMK A01 T02790118  RH  037%=      5-min Rain = 0
KMC4 161556Z 25010KT 28/11 A2989 RMK A01 T02810114  RH  036%=      5-min Rain = 0
KMC4 161557Z 24010KT 28/12 A2989 RMK A01 T02820115  RH  036%=      5-min Rain = 0
KMC4 161558Z 26010KT 28/11 A2989 RMK A01 T02830112  RH  035%=      5-min Rain = 0
KMC4 161559Z 25010KT 28/11 A2989 RMK A01 T02830111  RH  034%=      5-min Rain = 0
KMC4 161600Z 25011KT 28/11 A2989 RMK A01 T02830113  RH  035%=      5-min Rain = 0
KMC4 161601Z 25009KT 28/11 A2989 RMK A01 T02820114  RH  035%=      5-min Rain = 0
KMC4 161602Z 25007KT 28/11 A2989 RMK A01 T02810113  RH  035%=      5-min Rain = 0
KMC4 161603Z 24010KT 28/12 A2989 RMK A01 T02820116  RH  036%=      5-min Rain = 0
KMC4 161604Z 24009KT 28/11 A2989 RMK A01 T02830112  RH  034%=      5-min Rain = 0
KMC4 161605Z 25009KT 28/11 A2989 RMK A01 T02820112  RH  035%=      5-min Rain = 0
KMC4 161606Z 26007KT 28/11 A2989 RMK A01 T02820113  RH  035%=      5-min Rain = 0
KMC4 161607Z 26011G16KT 28/11 A2989 RMK A01 T02830112  RH  035%=      5-min Rain = 0
KMC4 161608Z 25012KT 28/11 A2989 RMK A01 T02840107  RH  033%=      5-min Rain = 0
KMC4 161609Z 26011KT 28/10 A2989 RMK A01 T02840104  RH  033%=      5-min Rain = 0
KMC4 161610Z 26009KT 28/10 A299 RMK A01 T02840104  RH  032%=      5-min Rain = 0
KMC4 161611Z 25012KT 28/10 A299 RMK A01 T02840103  RH  032%=      5-min Rain = 0
KMC4 161612Z 25011KT 28/10 A299 RMK A01 T02830102  RH  032%=      5-min Rain = 0
KMC4 161613Z 25011KT 28/10 A299 RMK A01 T02830104  RH  033%=      5-min Rain = 0
KMC4 161614Z 25008KT 28/11 A299 RMK A01 T02840107  RH  033%=      5-min Rain = 0
KMC4 161615Z 24007KT 29/11 A299 RMK A01 T02870109  RH  033%=      5-min Rain = 0
KMC4 161616Z 24009KT 29/11 A299 RMK A01 T02880111  RH  033%=      5-min Rain = 0
KMC4 161617Z 25009KT 29/11 A299 RMK A01 T02870110  RH  033%=      5-min Rain = 0
KMC4 161618Z 25007KT 29/11 A299 RMK A01 T02870112  RH  034%=      5-min Rain = 0
KMC4 161619Z 25011KT 29/11 A299 RMK A01 T02900111  RH  033%=      5-min Rain = 0
KMC4 161620Z 24009KT 29/11 A299 RMK A01 T02920110  RH  032%=      5-min Rain = 0
KMC4 161621Z 24010KT 29/11 A299 RMK A01 T02930106  RH  031%=      5-min Rain = 0
KMC4 161622Z 23009KT 29/11 A299 RMK A01 T02920105  RH  031%=      5-min Rain = 0
KMC4 161623Z 23011KT 29/11 A299 RMK A01 T02910106  RH  032%=      5-min Rain = 0
KMC4 161624Z 23010KT 29/10 A299 RMK A01 T02920104  RH  031%=      5-min Rain = 0
KMC4 161625Z 23007KT 29/10 A299 RMK A01 T02910103  RH  031%=      5-min Rain = 0
KMC4 161626Z 23009KT 29/10 A299 RMK A01 T02900103  RH  031%=      5-min Rain = 0
KMC4 161627Z 25011KT 29/10 A299 RMK A01 T02910103  RH  031%=      5-min Rain = 0
KMC4 161628Z 25011KT 29/10 A299 RMK A01 T02930102  RH  031%=      5-min Rain = 0
KMC4 161629Z 25011KT 29/10 A299 RMK A01 T02940099  RH  030%=      5-min Rain = 0
KMC4 161630Z 24009KT 29/10 A299 RMK A01 T02920099  RH  030%=      5-min Rain = 0
KMC4 161631Z 24008KT 29/10 A299 RMK A01 T02900097  RH  030%=      5-min Rain = 0
KMC4 161632Z 27008KT 29/10 A299 RMK A01 T02900101  RH  031%=      5-min Rain = 0
KMC4 161633Z 27009KT 29/10 A299 RMK A01 T02920095  RH  029%=      5-min Rain = 0
KMC4 161634Z 25010KT 29/10 A299 RMK A01 T02930101  RH  030%=      5-min Rain = 0
KMC4 161635Z 24010KT 29/10 A299 RMK A01 T02920099  RH  030%=      5-min Rain = 0
KMC4 161636Z 25008KT 29/10 A299 RMK A01 T02890101  RH  031%=      5-min Rain = 0
KMC4 161637Z 24007KT 29/10 A299 RMK A01 T02880100  RH  031%=      5-min Rain = 0
KMC4 161638Z 24008KT 29/10 A299 RMK A01 T02880102  RH  031%=      5-min Rain = 0
KMC4 161639Z 24011KT 29/10 A299 RMK A01 T02910099  RH  030%=      5-min Rain = 0
KMC4 161640Z 25010KT 29/10 A299 RMK A01 T02930100  RH  030%=      5-min Rain = 0
KMC4 161641Z 26007KT 29/10 A299 RMK A01 T02930099  RH  030%=      5-min Rain = 0
KMC4 161642Z 26007KT 29/10 A299 RMK A01 T02920102  RH  031%=      5-min Rain = 0
KMC4 161643Z 25008G13KT 29/10 A299 RMK A01 T02920099  RH  030%=      5-min Rain = 0
KMC4 161644Z 23009KT 29/10 A299 RMK A01 T02920102  RH  031%=      5-min Rain = 0
KMC4 161645Z 25009KT 29/10 A299 RMK A01 T02930100  RH  030%=      5-min Rain = 0
KMC4 161646Z 24011KT 29/10 A299 RMK A01 T02940101  RH  030%=      5-min Rain = 0
KMC4 161647Z 24008KT 29/10 A299 RMK A01 T02940098  RH  029%=      5-min Rain = 0
KMC4 161648Z 27007KT 29/10 A299 RMK A01 T02920100  RH  030%=      5-min Rain = 0
KMC4 161649Z 26007KT 29/10 A299 RMK A01 T02910099  RH  030%=      5-min Rain = 0
KMC4 161650Z 25006KT 29/10 A299 RMK A01 T02900100  RH  031%=      5-min Rain = 0
KMC4 161651Z 24011KT 29/10 A299 RMK A01 T02940100  RH  030%=      5-min Rain = 0
KMC4 161652Z 24010KT 30/09 A299 RMK A01 T02950094  RH  029%=      5-min Rain = 0
KMC4 161653Z 26008KT 29/10 A299 RMK A01 T02940096  RH  029%=      5-min Rain = 0
KMC4 161654Z 27009KT 29/10 A299 RMK A01 T02930098  RH  030%=      5-min Rain = 0
KMC4 161655Z 27010KT 29/10 A299 RMK A01 T02930098  RH  030%=      5-min Rain = 0
KMC4 161656Z 26008KT 30/10 A299 RMK A01 T02950101  RH  030%=      5-min Rain = 0
KMC4 161657Z 23007KT 30/10 A299 RMK A01 T02990103  RH  030%=      5-min Rain = 0
KMC4 161658Z 22009KT 30/10 A299 RMK A01 T03020099  RH  028%=      5-min Rain = 0
KMC4 161659Z 22006KT 30/09 A299 RMK A01 T03000094  RH  028%=      5-min Rain = 0
KMC4 161700Z 23005KT 30/10 A299 RMK A01 T02980096  RH  029%=      5-min Rain = 0
KMC4 161701Z 22007KT 30/10 A299 RMK A01 T02970098  RH  029%=      5-min Rain = 0
KMC4 161702Z 23010G15KT 30/10 A299 RMK A01 T02970099  RH  029%=      5-min Rain = 0
KMC4 161703Z 24011KT 30/10 A299 RMK A01 T03000100  RH  029%=      5-min Rain = 0
KMC4 161704Z 24010KT 30/10 A299 RMK A01 T03020098  RH  028%=      5-min Rain = 0
KMC4 161705Z 25009KT 30/09 A299 RMK A01 T03000094  RH  028%=      5-min Rain = 0
KMC4 161706Z 25007KT 30/10 A299 RMK A01 T02980095  RH  028%=      5-min Rain = 0
KMC4 161707Z 23008KT 30/10 A299 RMK A01 T02980095  RH  028%=      5-min Rain = 0
KMC4 161708Z 26007KT 30/10 A299 RMK A01 T02990096  RH  028%=      5-min Rain = 0
KMC4 161709Z 25006KT 30/10 A299 RMK A01 T03000096  RH  028%=      5-min Rain = 0
KMC4 161710Z 27006KT 30/10 A299 RMK A01 T02980098  RH  029%=      5-min Rain = 0
KMC4 161711Z 24008KT 30/10 A299 RMK A01 T02990098  RH  029%=      5-min Rain = 0
KMC4 161712Z 22008KT 30/10 A299 RMK A01 T03010099  RH  028%=      5-min Rain = 0
KMC4 161713Z 24010KT 30/10 A299 RMK A01 T03020097  RH  028%=      5-min Rain = 0
KMC4 161714Z 25010KT 30/09 A299 RMK A01 T03010094  RH  028%=      5-min Rain = 0
KMC4 161715Z 26008KT 30/10 A299 RMK A01 T03000096  RH  028%=      5-min Rain = 0
KMC4 161716Z 25005KT 30/10 A299 RMK A01 T03000095  RH  028%=      5-min Rain = 0
KMC4 161717Z 26006KT 30/10 A299 RMK A01 T03020101  RH  029%=      5-min Rain = 0
KMC4 161718Z 25008KT 31/10 A299 RMK A01 T03060099  RH  028%=      5-min Rain = 0
KMC4 161719Z 22010KT 31/10 A299 RMK A01 T03090099  RH  027%=      5-min Rain = 0
KMC4 161720Z 23008KT 31/10 A299 RMK A01 T03080095  RH  027%=      5-min Rain = 0
KMC4 161721Z 24009KT 31/10 A299 RMK A01 T03060097  RH  027%=      5-min Rain = 0
KMC4 161722Z 25010KT 31/10 A299 RMK A01 T03080100  RH  028%=      5-min Rain = 0
KMC4 161723Z 28007KT 31/10 A299 RMK A01 T03100096  RH  027%=      5-min Rain = 0
KMC4 161724Z 28006KT 31/09 A299 RMK A01 T03070093  RH  026%=      5-min Rain = 0
KMC4 161725Z 27007KT 31/10 A299 RMK A01 T03060097  RH  027%=      5-min Rain = 0
KMC4 161726Z 26006KT 31/10 A299 RMK A01 T03050097  RH  027%=      5-min Rain = 0
KMC4 161727Z 27006KT 30/10 A299 RMK A01 T03030099  RH  028%=      5-min Rain = 0
KMC4 161728Z 24006KT 30/10 A299 RMK A01 T03030098  RH  028%=      5-min Rain = 0
KMC4 161729Z 24009KT 30/10 A299 RMK A01 T03040101  RH  028%=      5-min Rain = 0
KMC4 161730Z 25011KT 31/10 A299 RMK A01 T03070098  RH  027%=      5-min Rain = 0
KMC4 161731Z 27007KT 31/10 A299 RMK A01 T03070096  RH  027%=      5-min Rain = 0
KMC4 161732Z 27005KT 31/10 A299 RMK A01 T03050095  RH  027%=      5-min Rain = 0
KMC4 161733Z 24004KT 30/10 A299 RMK A01 T03040097  RH  028%=      5-min Rain = 0
KMC4 161734Z 24007KT 31/10 A299 RMK A01 T03070100  RH  028%=      5-min Rain = 0
KMC4 161735Z 25009KT 31/10 A299 RMK A01 T03090101  RH  028%=      5-min Rain = 0
KMC4 161736Z 25009KT 31/10 A299 RMK A01 T03100103  RH  028%=      5-min Rain = 0
KMC4 161737Z 27011KT 31/10 A299 RMK A01 T03110099  RH  027%=      5-min Rain = 0
KMC4 161738Z 26006KT 31/10 A299 RMK A01 T03080098  RH  027%=      5-min Rain = 0
KMC4 161739Z 23009KT 31/10 A299 RMK A01 T03070099  RH  028%=      5-min Rain = 0
KMC4 161740Z 24008KT 31/10 A299 RMK A01 T03050097  RH  027%=      5-min Rain = 0
KMC4 161741Z 25005KT 30/10 A299 RMK A01 T03040096  RH  028%=      5-min Rain = 0
KMC4 161742Z 26007KT 30/10 A299 RMK A01 T03030097  RH  028%=      5-min Rain = 0
KMC4 161743Z 25006KT 30/10 A299 RMK A01 T03040102  RH  029%=      5-min Rain = 0
KMC4 161744Z 25008KT 31/10 A299 RMK A01 T03070104  RH  029%=      5-min Rain = 0
KMC4 161745Z 23009KT 31/10 A299 RMK A01 T03090103  RH  028%=      5-min Rain = 0
KMC4 161746Z 22008KT 31/10 A299 RMK A01 T03100104  RH  028%=      5-min Rain = 0
KMC4 161747Z 22008KT 31/10 A299 RMK A01 T03110104  RH  028%=      5-min Rain = 0
KMC4 161748Z 23007KT 31/10 A299 RMK A01 T03120104  RH  028%=      5-min Rain = 0
KMC4 161749Z 23006KT 31/10 A299 RMK A01 T03110103  RH  028%=      5-min Rain = 0
KMC4 161750Z 23008KT 31/11 A299 RMK A01 T03120108  RH  028%=      5-min Rain = 0
KMC4 161751Z 23010KT 32/11 A299 RMK A01 T03160105  RH  027%=      5-min Rain = 0
KMC4 161752Z 24009KT 32/11 A299 RMK A01 T03160105  RH  027%=      5-min Rain = 0
KMC4 161753Z 24008G13KT 31/10 A299 RMK A01 T03140102  RH  027%=      5-min Rain = 0
KMC4 161754Z 25010KT 31/10 A299 RMK A01 T03120103  RH  028%=      5-min Rain = 0
KMC4 161755Z 25008KT 31/10 A299 RMK A01 T03100104  RH  028%=      5-min Rain = 0
KMC4 161756Z 24005KT 31/10 A299 RMK A01 T03080103  RH  028%=      5-min Rain = 0
KMC4 161757Z 26006KT 31/11 A299 RMK A01 T03080106  RH  029%=      5-min Rain = 0
KMC4 161758Z 28005KT 31/11 A299 RMK A01 T03090105  RH  028%=      5-min Rain = 0
KMC4 161759Z 25008KT 31/11 A299 RMK A01 T03120108  RH  028%=      5-min Rain = 0
KMC4 161800Z 28008KT 32/11 A299 RMK A01 T03160106  RH  027%=      5-min Rain = 0
KMC4 161801Z 27006KT 32/10 A299 RMK A01 T03160102  RH  027%=      5-min Rain = 0
KMC4 161802Z 26007KT 31/10 A299 RMK A01 T03130103  RH  027%=      5-min Rain = 0
KMC4 161803Z 23007KT 31/10 A299 RMK A01 T03100104  RH  028%=      5-min Rain = 0
KMC4 161804Z 24008KT 31/11 A299 RMK A01 T03090106  RH  028%=      5-min Rain = 0
KMC4 161805Z 26008KT 31/11 A299 RMK A01 T03100106  RH  028%=      5-min Rain = 0
KMC4 161806Z 27008KT 31/10 A2989 RMK A01 T03110103  RH  028%=      5-min Rain = 0
KMC4 161807Z 25009KT 31/10 A2989 RMK A01 T03100104  RH  028%=      5-min Rain = 0
KMC4 161808Z 28009KT 31/11 A2989 RMK A01 T03120107  RH  028%=      5-min Rain = 0
KMC4 161809Z 25007G13KT 32/11 A2989 RMK A01 T03160107  RH  028%=      5-min Rain = 0
KMC4 161810Z 26008KT 32/11 A2989 RMK A01 T03180109  RH  028%=      5-min Rain = 0
KMC4 161811Z 25007KT 32/11 A2989 RMK A01 T03190112  RH  028%=      5-min Rain = 0
KMC4 161812Z 23007KT 32/11 A2989 RMK A01 T03200112  RH  028%=      5-min Rain = 0
KMC4 161813Z 22006KT 32/11 A2989 RMK A01 T03190106  RH  027%=      5-min Rain = 0
KMC4 161814Z 23006KT 32/11 A2989 RMK A01 T03170106  RH  027%=      5-min Rain = 0
KMC4 161815Z 25006KT 32/11 A2989 RMK A01 T03170110  RH  028%=      5-min Rain = 0
KMC4 161816Z 28003KT 32/10 A2989 RMK A01 T03190104  RH  027%=      5-min Rain = 0
KMC4 161817Z 26002KT 32/11 A2989 RMK A01 T03180105  RH  027%=      5-min Rain = 0
KMC4 161818Z 23005KT 32/11 A2989 RMK A01 T03190111  RH  028%=      5-min Rain = 0
KMC4 161819Z 23008KT 32/11 A2989 RMK A01 T03220109  RH  027%=      5-min Rain = 0
KMC4 161820Z 23009KT 32/11 A2989 RMK A01 T03240109  RH  027%=      5-min Rain = 0
KMC4 161821Z 23007KT 32/11 A2989 RMK A01 T03230108  RH  027%=      5-min Rain = 0
KMC4 161822Z 26008KT 32/10 A2989 RMK A01 T03210100  RH  026%=      5-min Rain = 0
KMC4 161823Z 27009KT 32/10 A2989 RMK A01 T03220102  RH  026%=      5-min Rain = 0
KMC4 161824Z 28006KT 32/10 A2989 RMK A01 T03230098  RH  025%=      5-min Rain = 0
KMC4 161825Z 27008KT 32/10 A2989 RMK A01 T03220101  RH  026%=      5-min Rain = 0
KMC4 161826Z 26007KT 32/10 A2989 RMK A01 T03230103  RH  026%=      5-min Rain = 0
KMC4 161827Z 25005KT 33/11 A2989 RMK A01 T03250105  RH  026%=      5-min Rain = 0
KMC4 161828Z 23007KT 33/11 A2989 RMK A01 T03270105  RH  026%=      5-min Rain = 0
KMC4 161829Z 23006KT 33/10 A2989 RMK A01 T03270102  RH  025%=      5-min Rain = 0
KMC4 161830Z 26005KT 32/11 A2989 RMK A01 T03240107  RH  026%=      5-min Rain = 0
KMC4 161831Z 26009KT 33/10 A2989 RMK A01 T03250103  RH  026%=      5-min Rain = 0
KMC4 161832Z 27007KT 33/10 A2989 RMK A01 T03250104  RH  026%=      5-min Rain = 0
KMC4 161833Z 29007KT 32/10 A2989 RMK A01 T03240101  RH  025%=      5-min Rain = 0
KMC4 161834Z 31005KT 32/10 A2989 RMK A01 T03240097  RH  025%=      5-min Rain = 0
KMC4 161835Z 29004KT 32/10 A2989 RMK A01 T03230097  RH  025%=      5-min Rain = 0
KMC4 161836Z 29004KT 32/10 A2989 RMK A01 T03220100  RH  025%=      5-min Rain = 0
KMC4 161837Z 28009KT 33/10 A2989 RMK A01 T03250103  RH  026%=      5-min Rain = 0
KMC4 161838Z 29006KT 33/10 A2989 RMK A01 T03270099  RH  025%=      5-min Rain = 0
KMC4 161839Z 27005KT 33/10 A2989 RMK A01 T03250101  RH  025%=      5-min Rain = 0
KMC4 161840Z 30008KT 32/10 A2989 RMK A01 T03240102  RH  026%=      5-min Rain = 0
KMC4 161841Z 29006KT 33/10 A2989 RMK A01 T03250102  RH  025%=      5-min Rain = 0
KMC4 161842Z 31007KT 33/10 A2988 RMK A01 T03260101  RH  025%=      5-min Rain = 0
KMC4 161843Z 31007KT 33/10 A2988 RMK A01 T03260100  RH  025%=      5-min Rain = 0
KMC4 161844Z 32005KT 33/10 A2988 RMK A01 T03270100  RH  025%=      5-min Rain = 0
KMC4 161845Z 01005KT 33/10 A2988 RMK A01 T03270100  RH  025%=      5-min Rain = 0
KMC4 161846Z 00004KT 33/10 A2988 RMK A01 T03250100  RH  025%=      5-min Rain = 0
KMC4 161847Z 34002KT 32/10 A2988 RMK A01 T03240101  RH  025%=      5-min Rain = 0
KMC4 161848Z 29005KT 33/10 A2988 RMK A01 T03260103  RH  025%=      5-min Rain = 0
KMC4 161849Z 28005KT 33/11 A2988 RMK A01 T03300105  RH  025%=      5-min Rain = 0
KMC4 161850Z 28004KT 33/10 A2988 RMK A01 T03330104  RH  025%=      5-min Rain = 0
KMC4 161851Z 30006KT 33/10 A2988 RMK A01 T03310103  RH  025%=      5-min Rain = 0
KMC4 161852Z 26003KT 33/10 A2988 RMK A01 T03310103  RH  025%=      5-min Rain = 0
KMC4 161853Z 24007KT 33/10 A2988 RMK A01 T03310103  RH  025%=      5-min Rain = 0
KMC4 161854Z 26007KT 33/10 A2988 RMK A01 T03320103  RH  025%=      5-min Rain = 0
KMC4 161855Z 26009KT 33/11 A2988 RMK A01 T03330108  RH  025%=      5-min Rain = 0
KMC4 161856Z 22010KT 34/11 A2988 RMK A01 T03350106  RH  025%=      5-min Rain = 0
KMC4 161857Z 23009KT 34/11 A2988 RMK A01 T03370105  RH  024%=      5-min Rain = 0
KMC4 161858Z 23008KT 34/10 A2988 RMK A01 T03380102  RH  024%=      5-min Rain = 0
KMC4 161859Z 23005KT 33/10 A2988 RMK A01 T03340100  RH  024%=      5-min Rain = 0
KMC4 161900Z 25007KT 33/11 A2988 RMK A01 T03310106  RH  025%=      5-min Rain = 0
KMC4 161901Z 24007KT 33/11 A2988 RMK A01 T03330109  RH  025%=      5-min Rain = 0
KMC4 161902Z 26004KT 34/11 A2988 RMK A01 T03350106  RH  025%=      5-min Rain = 0
KMC4 161903Z 24005KT 34/11 A2988 RMK A01 T03350107  RH  025%=      5-min Rain = 0
KMC4 161904Z 25004KT 34/11 A2987 RMK A01 T03350108  RH  025%=      5-min Rain = 0
KMC4 161905Z 29006KT 34/11 A2987 RMK A01 T03350106  RH  025%=      5-min Rain = 0
KMC4 161906Z 29007KT 34/10 A2987 RMK A01 T03370104  RH  024%=      5-min Rain = 0
KMC4 161907Z 29007KT 34/10 A2987 RMK A01 T03390104  RH  024%=      5-min Rain = 0
KMC4 161908Z 30005KT 34/10 A2987 RMK A01 T03380103  RH  024%=      5-min Rain = 0
KMC4 161909Z 31007KT 34/10 A2987 RMK A01 T03370104  RH  024%=      5-min Rain = 0
KMC4 161910Z 28008G13KT 34/10 A2987 RMK A01 T03380104  RH  024%=      5-min Rain = 0
KMC4 161911Z 29004KT 34/10 A2987 RMK A01 T03370102  RH  024%=      5-min Rain = 0
KMC4 161912Z 29002KT 34/10 A2987 RMK A01 T03350100  RH  024%=      5-min Rain = 0
KMC4 161913Z 31005KT 33/10 A2987 RMK A01 T03340102  RH  024%=      5-min Rain = 0
KMC4 161914Z 31008KT 33/10 A2987 RMK A01 T03340099  RH  024%=      5-min Rain = 0
KMC4 161915Z 29009KT 34/10 A2987 RMK A01 T03380098  RH  023%=      5-min Rain = 0
KMC4 161916Z 31008KT 34/10 A2987 RMK A01 T03380098  RH  023%=      5-min Rain = 0
KMC4 161917Z 30005KT 34/10 A2987 RMK A01 T03390096  RH  023%=      5-min Rain = 0
KMC4 161918Z 28004KT 34/10 A2987 RMK A01 T03380097  RH  023%=      5-min Rain = 0
KMC4 161919Z 26002KT 34/10 A2987 RMK A01 T03360098  RH  023%=      5-min Rain = 0
KMC4 161920Z 31004KT 34/10 A2987 RMK A01 T03350099  RH  024%=      5-min Rain = 0
KMC4 161921Z 28006KT 34/10 A2987 RMK A01 T03370103  RH  024%=      5-min Rain = 0
KMC4 161922Z 28009KT 34/10 A2987 RMK A01 T03410102  RH  023%=      5-min Rain = 0
KMC4 161923Z 29007KT 34/10 A2987 RMK A01 T03410101  RH  023%=      5-min Rain = 0
KMC4 161924Z 30006KT 34/10 A2987 RMK A01 T03390099  RH  023%=      5-min Rain = 0
KMC4 161925Z 28008KT 34/10 A2987 RMK A01 T03390104  RH  024%=      5-min Rain = 0
KMC4 161926Z 28006KT 34/10 A2987 RMK A01 T03410101  RH  023%=      5-min Rain = 0
KMC4 161927Z 29005KT 34/10 A2987 RMK A01 T03390100  RH  023%=      5-min Rain = 0
KMC4 161928Z 27004KT 34/10 A2986 RMK A01 T03370101  RH  024%=      5-min Rain = 0
KMC4 161929Z 28006KT 34/10 A2986 RMK A01 T03370103  RH  024%=      5-min Rain = 0
KMC4 161930Z 31004KT 34/10 A2986 RMK A01 T03370101  RH  024%=      5-min Rain = 0
KMC4 161931Z 29003KT 34/10 A2986 RMK A01 T03380101  RH  023%=      5-min Rain = 0
KMC4 161932Z 22006KT 34/10 A2986 RMK A01 T03380104  RH  024%=      5-min Rain = 0
KMC4 161933Z 25006KT 34/11 A2986 RMK A01 T03380105  RH  024%=      5-min Rain = 0
KMC4 161934Z 27003KT 34/11 A2986 RMK A01 T03390105  RH  024%=      5-min Rain = 0
KMC4 161935Z 28003KT 34/10 A2986 RMK A01 T03390104  RH  024%=      5-min Rain = 0
KMC4 161936Z 27001KT 34/10 A2986 RMK A01 T03400103  RH  023%=      5-min Rain = 0
KMC4 161937Z 23004KT 34/11 A2986 RMK A01 T03410106  RH  024%=      5-min Rain = 0
KMC4 161938Z 26004KT 34/11 A2986 RMK A01 T03430107  RH  024%=      5-min Rain = 0
KMC4 161939Z 22004KT 34/10 A2986 RMK A01 T03430104  RH  023%=      5-min Rain = 0
KMC4 161940Z 25005KT 34/11 A2986 RMK A01 T03420105  RH  024%=      5-min Rain = 0
KMC4 161941Z 28004KT 34/11 A2986 RMK A01 T03410105  RH  024%=      5-min Rain = 0
KMC4 161942Z 31003KT 34/10 A2986 RMK A01 T03400103  RH  024%=      5-min Rain = 0
KMC4 161943Z 31002KT 34/10 A2986 RMK A01 T03400103  RH  024%=      5-min Rain = 0
KMC4 161944Z 31003KT 34/10 A2986 RMK A01 T03400103  RH  024%=      5-min Rain = 0
KMC4 161945Z 29004KT 34/11 A2986 RMK A01 T03410106  RH  024%=      5-min Rain = 0
KMC4 161946Z 26003KT 34/11 A2986 RMK A01 T03420107  RH  024%=      5-min Rain = 0
KMC4 161947Z 27006G11KT 34/11 A2986 RMK A01 T03440110  RH  024%=      5-min Rain = 0
KMC4 161948Z 29008KT 35/11 A2985 RMK A01 T03450110  RH  024%=      5-min Rain = 0
KMC4 161949Z 30008KT 35/11 A2985 RMK A01 T03460107  RH  023%=      5-min Rain = 0
KMC4 161950Z 31007KT 35/11 A2985 RMK A01 T03470109  RH  024%=      5-min Rain = 0
KMC4 161951Z 29005KT 35/11 A2985 RMK A01 T03500108  RH  023%=      5-min Rain = 0
KMC4 161952Z 26005KT 35/11 A2985 RMK A01 T03490109  RH  023%=      5-min Rain = 0
KMC4 161953Z 26007KT 35/12 A2985 RMK A01 T03470115  RH  024%=      5-min Rain = 0
KMC4 161954Z 26006KT 35/11 A2985 RMK A01 T03470113  RH  024%=      5-min Rain = 0
KMC4 161955Z 26005KT 35/11 A2985 RMK A01 T03470111  RH  024%=      5-min Rain = 0
KMC4 161956Z 28005G10KT 35/11 A2985 RMK A01 T03460110  RH  024%=      5-min Rain = 0
KMC4 161957Z 29009KT 35/10 A2985 RMK A01 T03460103  RH  023%=      5-min Rain = 0
KMC4 161958Z 27007KT 35/11 A2985 RMK A01 T03470105  RH  023%=      5-min Rain = 0
KMC4 161959Z 33004KT 35/10 A2985 RMK A01 T03480104  RH  023%=      5-min Rain = 0
KMC4 162000Z 31004KT 35/10 A2985 RMK A01 T03490102  RH  022%=      5-min Rain = 0
KMC4 162001Z 27005KT 35/10 A2985 RMK A01 T03490103  RH  022%=      5-min Rain = 0
KMC4 162002Z 26006KT 35/10 A2985 RMK A01 T03490099  RH  022%=      5-min Rain = 0
KMC4 162003Z 24002KT 35/10 A2985 RMK A01 T03480096  RH  022%=      5-min Rain = 0
KMC4 162004Z 24006G12KT 35/10 A2985 RMK A01 T03490099  RH  022%=      5-min Rain = 0
KMC4 162005Z 26010KT 35/11 A2985 RMK A01 T03510107  RH  023%=      5-min Rain = 0
KMC4 162006Z 25008KT 35/10 A2985 RMK A01 T03520103  RH  022%=      5-min Rain = 0
KMC4 162007Z 25007KT 35/10 A2985 RMK A01 T03480103  RH  022%=      5-min Rain = 0
KMC4 162008Z 27005KT 35/10 A2985 RMK A01 T03480102  RH  022%=      5-min Rain = 0
KMC4 162009Z 27005KT 35/10 A2985 RMK A01 T03480101  RH  022%=      5-min Rain = 0
KMC4 162010Z 27007KT 35/10 A2984 RMK A01 T03470101  RH  022%=      5-min Rain = 0
KMC4 162011Z 26008KT 35/10 A2985 RMK A01 T03500101  RH  022%=      5-min Rain = 0
KMC4 162012Z 25005KT 35/10 A2985 RMK A01 T03500097  RH  021%=      5-min Rain = 0
KMC4 162013Z 22002KT 35/10 A2984 RMK A01 T03470096  RH  021%=      5-min Rain = 0
KMC4 162014Z 17000KT 35/10 A2984 RMK A01 T03470096  RH  022%=      5-min Rain = 0
KMC4 162015Z 26002KT 35/09 A2984 RMK A01 T03490094  RH  021%=      5-min Rain = 0
KMC4 162016Z 25007G12KT 35/10 A2984 RMK A01 T03510099  RH  022%=      5-min Rain = 0
KMC4 162017Z 27011KT 35/10 A2984 RMK A01 T03520100  RH  022%=      5-min Rain = 0
KMC4 162018Z 27010KT 36/10 A2984 RMK A01 T03550096  RH  021%=      5-min Rain = 0
KMC4 162019Z 28006KT 35/10 A2984 RMK A01 T03540097  RH  021%=      5-min Rain = 0
KMC4 162020Z 27005KT 36/10 A2984 RMK A01 T03550096  RH  021%=      5-min Rain = 0
KMC4 162021Z 27004KT 36/09 A2984 RMK A01 T03560092  RH  020%=      5-min Rain = 0
KMC4 162022Z 25004KT 35/10 A2984 RMK A01 T03540096  RH  021%=      5-min Rain = 0
KMC4 162023Z 24006KT 36/10 A2984 RMK A01 T03550095  RH  021%=      5-min Rain = 0
KMC4 162024Z 22006KT 36/09 A2984 RMK A01 T03570092  RH  020%=      5-min Rain = 0
KMC4 162025Z 21007KT 36/09 A2984 RMK A01 T03570088  RH  019%=      5-min Rain = 0
KMC4 162026Z 22004KT 36/09 A2984 RMK A01 T03550088  RH  020%=      5-min Rain = 0
KMC4 162027Z 23007KT 35/09 A2984 RMK A01 T03540086  RH  019%=      5-min Rain = 0
KMC4 162028Z 25009KT 35/09 A2984 RMK A01 T03530086  RH  020%=      5-min Rain = 0
KMC4 162029Z 24009KT 36/09 A2984 RMK A01 T03580090  RH  020%=      5-min Rain = 0
KMC4 162030Z 22011KT 36/09 A2983 RMK A01 T03610086  RH  019%=      5-min Rain = 0
KMC4 162031Z 21007KT 36/08 A2983 RMK A01 T03590082  RH  018%=      5-min Rain = 0
KMC4 162032Z 23007KT 36/08 A2983 RMK A01 T03560083  RH  019%=      5-min Rain = 0
KMC4 162033Z 27010KT 36/09 A2983 RMK A01 T03570085  RH  019%=      5-min Rain = 0
KMC4 162034Z 28009G15KT 36/08 A2983 RMK A01 T03590077  RH  018%=      5-min Rain = 0
KMC4 162035Z 28010KT 36/08 A2983 RMK A01 T03590076  RH  018%=      5-min Rain = 0
KMC4 162036Z 29010KT 36/08 A2983 RMK A01 T03580077  RH  018%=      5-min Rain = 0
KMC4 162037Z 31008KT 36/07 A2983 RMK A01 T03590074  RH  017%=      5-min Rain = 0
KMC4 162038Z 29009KT 36/07 A2983 RMK A01 T03590072  RH  017%=      5-min Rain = 0
KMC4 162039Z 29006KT 36/07 A2983 RMK A01 T03570072  RH  017%=      5-min Rain = 0
KMC4 162040Z 29004KT 36/07 A2983 RMK A01 T03560073  RH  018%=      5-min Rain = 0
KMC4 162041Z 30005KT 36/08 A2983 RMK A01 T03560077  RH  018%=      5-min Rain = 0
KMC4 162042Z 26004KT 36/08 A2983 RMK A01 T03580078  RH  018%=      5-min Rain = 0
KMC4 162043Z 29006KT 36/08 A2983 RMK A01 T03610077  RH  018%=      5-min Rain = 0
KMC4 162044Z 29006KT 36/08 A2983 RMK A01 T03590077  RH  018%=      5-min Rain = 0
KMC4 162045Z 28005KT 36/07 A2983 RMK A01 T03600068  RH  017%=      5-min Rain = 0
KMC4 162046Z 28004KT 36/07 A2983 RMK A01 T03590068  RH  017%=      5-min Rain = 0
KMC4 162047Z 27004KT 36/08 A2983 RMK A01 T03600076  RH  018%=      5-min Rain = 0
KMC4 162048Z 27005KT 36/08 A2983 RMK A01 T03610082  RH  018%=      5-min Rain = 0
KMC4 162049Z 25003KT 36/08 A2983 RMK A01 T03620078  RH  018%=      5-min Rain = 0
KMC4 162050Z 25007KT 36/08 A2983 RMK A01 T03620077  RH  017%=      5-min Rain = 0
KMC4 162051Z 26005KT 36/08 A2983 RMK A01 T03610075  RH  017%=      5-min Rain = 0
KMC4 162052Z 26009KT 36/08 A2983 RMK A01 T03610079  RH  018%=      5-min Rain = 0
KMC4 162053Z 27012KT 36/08 A2982 RMK A01 T03610078  RH  018%=      5-min Rain = 0
KMC4 162054Z 30009KT 36/07 A2982 RMK A01 T03610074  RH  017%=      5-min Rain = 0
KMC4 162055Z 31008KT 36/07 A2982 RMK A01 T03620073  RH  017%=      5-min Rain = 0
KMC4 162056Z 30004KT 36/07 A2982 RMK A01 T03630072  RH  017%=      5-min Rain = 0
KMC4 162057Z 26008KT 36/08 A2982 RMK A01 T03630078  RH  017%=      5-min Rain = 0
KMC4 162058Z 24010G15KT 37/07 A2982 RMK A01 T03650074  RH  017%=      5-min Rain = 0
KMC4 162059Z 26012KT 37/08 A2982 RMK A01 T03650078  RH  017%=      5-min Rain = 0
KMC4 162100Z 26011KT 37/07 A2982 RMK A01 T03670074  RH  017%=      5-min Rain = 0
KMC4 162101Z 25011KT 37/07 A2982 RMK A01 T03680072  RH  016%=      5-min Rain = 0
KMC4 162102Z 27008KT 37/08 A2982 RMK A01 T03660075  RH  017%=      5-min Rain = 0
KMC4 162103Z 26009KT 37/07 A2982 RMK A01 T03670071  RH  016%=      5-min Rain = 0
KMC4 162104Z 27009G14KT 37/07 A2982 RMK A01 T03650069  RH  016%=      5-min Rain = 0
KMC4 162105Z 27009KT 36/07 A2982 RMK A01 T03620068  RH  016%=      5-min Rain = 0
KMC4 162106Z 24009KT 36/08 A2982 RMK A01 T03620075  RH  017%=      5-min Rain = 0
KMC4 162107Z 25010KT 36/07 A2982 RMK A01 T03640071  RH  017%=      5-min Rain = 0
KMC4 162108Z 25009KT 36/07 A2982 RMK A01 T03640074  RH  017%=      5-min Rain = 0
KMC4 162109Z 26006KT 36/07 A2982 RMK A01 T03630068  RH  016%=      5-min Rain = 0
KMC4 162110Z 27006KT 36/07 A2982 RMK A01 T03610069  RH  017%=      5-min Rain = 0
KMC4 162111Z 24007KT 36/07 A2982 RMK A01 T03600069  RH  017%=      5-min Rain = 0
KMC4 162112Z 22010KT 36/07 A2982 RMK A01 T03600070  RH  017%=      5-min Rain = 0
KMC4 162113Z 23008KT 36/07 A2982 RMK A01 T03600069  RH  017%=      5-min Rain = 0
KMC4 162114Z 23007KT 36/07 A2982 RMK A01 T03600067  RH  016%=      5-min Rain = 0
KMC4 162115Z 22007KT 36/07 A2982 RMK A01 T03600066  RH  016%=      5-min Rain = 0
KMC4 162116Z 21005KT 36/07 A2982 RMK A01 T03590066  RH  017%=      5-min Rain = 0
KMC4 162117Z 23005KT 36/07 A2982 RMK A01 T03580065  RH  016%=      5-min Rain = 0
KMC4 162118Z 23005KT 36/07 A2982 RMK A01 T03580068  RH  017%=      5-min Rain = 0
KMC4 162119Z 22006KT 36/07 A2982 RMK A01 T03590072  RH  017%=      5-min Rain = 0
KMC4 162120Z 22004KT 36/07 A2982 RMK A01 T03630071  RH  017%=      5-min Rain = 0
KMC4 162121Z 27006KT 36/07 A2982 RMK A01 T03630070  RH  017%=      5-min Rain = 0
KMC4 162122Z 27011G16KT 36/07 A2981 RMK A01 T03630065  RH  016%=      5-min Rain = 0
KMC4 162123Z 27011KT 37/06 A2982 RMK A01 T03660063  RH  016%=      5-min Rain = 0
KMC4 162124Z 27010KT 37/06 A2982 RMK A01 T03660064  RH  016%=      5-min Rain = 0
KMC4 162125Z 26009KT 37/07 A2982 RMK A01 T03660069  RH  016%=      5-min Rain = 0
KMC4 162126Z 25009KT 37/07 A2982 RMK A01 T03670066  RH  016%=      5-min Rain = 0
KMC4 162127Z 27013KT 37/07 A2981 RMK A01 T03670065  RH  016%=      5-min Rain = 0
KMC4 162128Z 27013KT 37/06 A2981 RMK A01 T03680056  RH  015%=      5-min Rain = 0
KMC4 162129Z 27012KT 37/06 A2981 RMK A01 T03680057  RH  015%=      5-min Rain = 0
KMC4 162130Z 28012KT 37/05 A2981 RMK A01 T03670053  RH  014%=      5-min Rain = 0
KMC4 162131Z 27011KT 37/05 A2981 RMK A01 T03670052  RH  014%=      5-min Rain = 0
KMC4 162132Z 25012KT 37/06 A2981 RMK A01 T03660059  RH  015%=      5-min Rain = 0
KMC4 162133Z 26012KT 37/06 A2981 RMK A01 T03650057  RH  015%=      5-min Rain = 0
KMC4 162134Z 26011KT 37/06 A2981 RMK A01 T03650056  RH  015%=      5-min Rain = 0
KMC4 162135Z 25006KT 37/06 A2981 RMK A01 T03650055  RH  015%=      5-min Rain = 0
KMC4 162136Z 27010KT 37/06 A2981 RMK A01 T03650057  RH  015%=      5-min Rain = 0
KMC4 162137Z 26008KT 37/05 A2981 RMK A01 T03660050  RH  014%=      5-min Rain = 0
KMC4 162138Z 28004KT 36/05 A2981 RMK A01 T03640049  RH  014%=      5-min Rain = 0
KMC4 162139Z 28008KT 36/05 A2981 RMK A01 T03640053  RH  015%=      5-min Rain = 0
KMC4 162140Z 27009KT 37/05 A2981 RMK A01 T03650047  RH  014%=      5-min Rain = 0
KMC4 162141Z 26009KT 37/05 A2981 RMK A01 T03650048  RH  014%=      5-min Rain = 0
KMC4 162142Z 25009KT 37/05 A2981 RMK A01 T03650053  RH  015%=      5-min Rain = 0
KMC4 162143Z 28011KT 37/06 A2981 RMK A01 T03660055  RH  015%=      5-min Rain = 0
KMC4 162144Z 27010KT 37/05 A2981 RMK A01 T03670053  RH  014%=      5-min Rain = 0
KMC4 162145Z 28010KT 37/06 A2981 RMK A01 T03670056  RH  015%=      5-min Rain = 0
KMC4 162146Z 29009KT 37/05 A2981 RMK A01 T03690053  RH  014%=      5-min Rain = 0
KMC4 162147Z 27008KT 37/05 A2981 RMK A01 T03680053  RH  014%=      5-min Rain = 0
KMC4 162148Z 30007KT 37/05 A2981 RMK A01 T03670052  RH  014%=      5-min Rain = 0
KMC4 162149Z 29008KT 37/05 A2981 RMK A01 T03660049  RH  014%=      5-min Rain = 0
KMC4 162150Z 27009KT 37/05 A2981 RMK A01 T03660048  RH  014%=      5-min Rain = 0
KMC4 162151Z 25008KT 37/05 A2981 RMK A01 T03660052  RH  014%=      5-min Rain = 0
KMC4 162152Z 24008KT 37/05 A2981 RMK A01 T03670049  RH  014%=      5-min Rain = 0
KMC4 162153Z 22007KT 37/05 A2981 RMK A01 T03670047  RH  014%=      5-min Rain = 0
KMC4 162154Z 22007KT 37/04 A2981 RMK A01 T03660042  RH  013%=      5-min Rain = 0
KMC4 162155Z 21006KT 37/04 A2981 RMK A01 T03650042  RH  013%=      5-min Rain = 0
KMC4 162156Z 23008KT 37/04 A2981 RMK A01 T03660042  RH  013%=      5-min Rain = 0
KMC4 162157Z 22009KT 37/04 A2981 RMK A01 T03670041  RH  013%=      5-min Rain = 0
KMC4 162158Z 25009KT 37/05 A2981 RMK A01 T03670045  RH  014%=      5-min Rain = 0
KMC4 162159Z 27010KT 37/05 A2981 RMK A01 T03670051  RH  014%=      5-min Rain = 0
KMC4 162200Z 26007KT 37/05 A2981 RMK A01 T03660049  RH  014%=      5-min Rain = 0
KMC4 162201Z 27005KT 37/05 A2981 RMK A01 T03660054  RH  015%=      5-min Rain = 0
KMC4 162202Z 27006KT 37/05 A2981 RMK A01 T03680053  RH  014%=      5-min Rain = 0
KMC4 162203Z 26010KT 37/05 A2981 RMK A01 T03690053  RH  014%=      5-min Rain = 0
KMC4 162204Z 27009KT 37/05 A2981 RMK A01 T03700051  RH  014%=      5-min Rain = 0
KMC4 162205Z 26007KT 37/05 A2981 RMK A01 T03710050  RH  014%=      5-min Rain = 0
KMC4 162206Z 29008KT 37/05 A2981 RMK A01 T03690051  RH  014%=      5-min Rain = 0
KMC4 162207Z 30009KT 37/05 A2981 RMK A01 T03690049  RH  014%=      5-min Rain = 0
KMC4 162208Z 28010KT 37/05 A2981 RMK A01 T03680054  RH  014%=      5-min Rain = 0
KMC4 162209Z 27010KT 37/06 A2981 RMK A01 T03700059  RH  015%=      5-min Rain = 0
KMC4 162210Z 27010KT 37/06 A298 RMK A01 T03700062  RH  015%=      5-min Rain = 0
KMC4 162211Z 26012KT 37/06 A298 RMK A01 T03700059  RH  015%=      5-min Rain = 0
KMC4 162212Z 27010KT 37/06 A298 RMK A01 T03700055  RH  014%=      5-min Rain = 0
KMC4 162213Z 27008KT 37/06 A298 RMK A01 T03700057  RH  015%=      5-min Rain = 0
KMC4 162214Z 28009KT 37/06 A298 RMK A01 T03690055  RH  015%=      5-min Rain = 0
KMC4 162215Z 28008KT 37/05 A298 RMK A01 T03700053  RH  014%=      5-min Rain = 0
KMC4 162216Z 26012KT 37/06 A298 RMK A01 T03700061  RH  015%=      5-min Rain = 0
KMC4 162217Z 25010KT 37/06 A298 RMK A01 T03710057  RH  014%=      5-min Rain = 0
KMC4 162218Z 25008KT 37/06 A298 RMK A01 T03700059  RH  015%=      5-min Rain = 0
KMC4 162219Z 25007KT 37/06 A298 RMK A01 T03700057  RH  015%=      5-min Rain = 0
KMC4 162220Z 24008KT 37/05 A298 RMK A01 T03700054  RH  014%=      5-min Rain = 0
KMC4 162221Z 26007KT 37/06 A298 RMK A01 T03680058  RH  015%=      5-min Rain = 0
KMC4 162222Z 27007KT 37/06 A298 RMK A01 T03680059  RH  015%=      5-min Rain = 0
KMC4 162223Z 24008KT 37/06 A298 RMK A01 T03680059  RH  015%=      5-min Rain = 0
KMC4 162224Z 24008KT 37/06 A298 RMK A01 T03680055  RH  015%=      5-min Rain = 0
KMC4 162225Z 24008KT 37/06 A298 RMK A01 T03670056  RH  015%=      5-min Rain = 0
KMC4 162226Z 24007KT 37/06 A298 RMK A01 T03670058  RH  015%=      5-min Rain = 0
KMC4 162227Z 24005KT 37/06 A298 RMK A01 T03670060  RH  015%=      5-min Rain = 0
KMC4 162228Z 25007KT 37/06 A298 RMK A01 T03670060  RH  015%=      5-min Rain = 0
KMC4 162229Z 25007KT 37/06 A298 RMK A01 T03670061  RH  015%=      5-min Rain = 0
KMC4 162230Z 26005KT 37/06 A298 RMK A01 T03670062  RH  015%=      5-min Rain = 0
KMC4 162231Z 26003KT 37/06 A298 RMK A01 T03660062  RH  015%=      5-min Rain = 0
KMC4 162232Z 26003KT 37/06 A298 RMK A01 T03670063  RH  015%=      5-min Rain = 0
KMC4 162233Z 28005KT 37/06 A298 RMK A01 T03690064  RH  015%=      5-min Rain = 0
KMC4 162234Z 26008KT 37/06 A298 RMK A01 T03710062  RH  015%=      5-min Rain = 0
KMC4 162235Z 28007KT 37/06 A298 RMK A01 T03700061  RH  015%=      5-min Rain = 0
KMC4 162236Z 29006KT 37/06 A298 RMK A01 T03680058  RH  015%=      5-min Rain = 0
KMC4 162237Z 25006KT 37/06 A298 RMK A01 T03690061  RH  015%=      5-min Rain = 0
KMC4 162238Z 25005KT 37/06 A298 RMK A01 T03700063  RH  015%=      5-min Rain = 0
KMC4 162239Z 30009KT 37/06 A298 RMK A01 T03710060  RH  015%=      5-min Rain = 0
KMC4 162240Z 30008KT 37/05 A298 RMK A01 T03720054  RH  014%=      5-min Rain = 0
KMC4 162241Z 30008KT 37/06 A2979 RMK A01 T03710056  RH  014%=      5-min Rain = 0
KMC4 162242Z 29007KT 37/06 A2979 RMK A01 T03710057  RH  015%=      5-min Rain = 0
KMC4 162243Z 30007KT 37/05 A2979 RMK A01 T03720054  RH  014%=      5-min Rain = 0
KMC4 162244Z 28006KT 37/06 A2979 RMK A01 T03710057  RH  015%=      5-min Rain = 0
KMC4 162245Z 26007KT 37/06 A2979 RMK A01 T03710059  RH  015%=      5-min Rain = 0
KMC4 162246Z 24008KT 37/06 A2979 RMK A01 T03710058  RH  015%=      5-min Rain = 0
KMC4 162247Z 24005KT 37/05 A2979 RMK A01 T03690051  RH  014%=      5-min Rain = 0
KMC4 162248Z 22006KT 37/05 A2979 RMK A01 T03670054  RH  015%=      5-min Rain = 0
KMC4 162249Z 22005KT 37/05 A2979 RMK A01 T03670053  RH  014%=      5-min Rain = 0
KMC4 162250Z 25004KT 37/05 A2979 RMK A01 T03660054  RH  015%=      5-min Rain = 0
KMC4 162251Z 27007KT 37/06 A2979 RMK A01 T03680061  RH  015%=      5-min Rain = 0
KMC4 162252Z 27009KT 37/05 A2979 RMK A01 T03690054  RH  014%=      5-min Rain = 0
KMC4 162253Z 26012KT 37/06 A2979 RMK A01 T03700059  RH  015%=      5-min Rain = 0
KMC4 162254Z 26012KT 37/06 A2979 RMK A01 T03700059  RH  015%=      5-min Rain = 0
KMC4 162255Z 26010KT 37/06 A2979 RMK A01 T03690061  RH  015%=      5-min Rain = 0
KMC4 162256Z 27010KT 37/06 A2979 RMK A01 T03690057  RH  015%=      5-min Rain = 0
KMC4 162257Z 26010KT 37/06 A2979 RMK A01 T03680056  RH  015%=      5-min Rain = 0
KMC4 162258Z 27009KT 37/06 A2979 RMK A01 T03700063  RH  015%=      5-min Rain = 0
KMC4 162259Z 27008KT 37/06 A2979 RMK A01 T03730060  RH  015%=      5-min Rain = 0
KMC4 162300Z 28006KT 38/06 A2979 RMK A01 T03750056  RH  014%=      5-min Rain = 0
KMC4 162301Z 28008KT 38/05 A2979 RMK A01 T03750054  RH  014%=      5-min Rain = 0
KMC4 162302Z 26008KT 38/06 A2979 RMK A01 T03750055  RH  014%=      5-min Rain = 0
KMC4 162303Z 25008KT 37/05 A2979 RMK A01 T03730053  RH  014%=      5-min Rain = 0
KMC4 162304Z 26008KT 37/05 A2979 RMK A01 T03710053  RH  014%=      5-min Rain = 0
KMC4 162305Z 26004KT 37/05 A2979 RMK A01 T03700050  RH  014%=      5-min Rain = 0
KMC4 162306Z 29003KT 37/05 A2979 RMK A01 T03690052  RH  014%=      5-min Rain = 0
KMC4 162307Z 27003KT 37/05 A2979 RMK A01 T03690049  RH  014%=      5-min Rain = 0
KMC4 162308Z 24008KT 37/05 A2979 RMK A01 T03690052  RH  014%=      5-min Rain = 0
KMC4 162309Z 26009KT 37/06 A2979 RMK A01 T03700056  RH  015%=      5-min Rain = 0
KMC4 162310Z 26008KT 37/06 A2979 RMK A01 T03710055  RH  014%=      5-min Rain = 0
KMC4 162311Z 26008KT 37/05 A2979 RMK A01 T03710053  RH  014%=      5-min Rain = 0
KMC4 162312Z 26008KT 37/05 A2979 RMK A01 T03690052  RH  014%=      5-min Rain = 0
KMC4 162313Z 27006KT 37/05 A2979 RMK A01 T03680052  RH  014%=      5-min Rain = 0
KMC4 162314Z 29006KT 37/06 A2979 RMK A01 T03680058  RH  015%=      5-min Rain = 0
KMC4 162315Z 28008KT 37/07 A2979 RMK A01 T03690066  RH  016%=      5-min Rain = 0
KMC4 162316Z 30009KT 37/06 A2978 RMK A01 T03710064  RH  015%=      5-min Rain = 0
KMC4 162317Z 29008KT 37/06 A2978 RMK A01 T03720062  RH  015%=      5-min Rain = 0
KMC4 162318Z 29007KT 37/06 A2978 RMK A01 T03730060  RH  015%=      5-min Rain = 0
KMC4 162319Z 29005KT 37/06 A2978 RMK A01 T03720062  RH  015%=      5-min Rain = 0
KMC4 162320Z 28008KT 37/06 A2978 RMK A01 T03720064  RH  015%=      5-min Rain = 0
KMC4 162321Z 30008KT 37/06 A2978 RMK A01 T03730059  RH  015%=      5-min Rain = 0
KMC4 162322Z 30006KT 37/06 A2978 RMK A01 T03710057  RH  014%=      5-min Rain = 0
KMC4 162323Z 30006KT 37/06 A2978 RMK A01 T03700058  RH  015%=      5-min Rain = 0
KMC4 162324Z 31008KT 37/06 A2978 RMK A01 T03700061  RH  015%=      5-min Rain = 0
KMC4 162325Z 32006KT 37/06 A2978 RMK A01 T03710060  RH  015%=      5-min Rain = 0
KMC4 162326Z 32005KT 37/06 A2978 RMK A01 T03710058  RH  015%=      5-min Rain = 0
KMC4 162327Z 33006KT 37/06 A2978 RMK A01 T03710060  RH  015%=      5-min Rain = 0
KMC4 162328Z 33003KT 37/06 A2978 RMK A01 T03710057  RH  015%=      5-min Rain = 0
KMC4 162329Z 33004KT 37/06 A2978 RMK A01 T03710058  RH  015%=      5-min Rain = 0
KMC4 162330Z 31005KT 37/06 A2978 RMK A01 T03710059  RH  015%=      5-min Rain = 0
KMC4 162331Z 29007KT 37/06 A2978 RMK A01 T03700060  RH  015%=      5-min Rain = 0
KMC4 162332Z 26008KT 37/06 A2978 RMK A01 T03710063  RH  015%=      5-min Rain = 0
KMC4 162333Z 25009KT 37/06 A2978 RMK A01 T03720062  RH  015%=      5-min Rain = 0
KMC4 162334Z 26010KT 37/06 A2978 RMK A01 T03710060  RH  015%=      5-min Rain = 0
KMC4 162335Z 27011KT 37/06 A2978 RMK A01 T03700058  RH  015%=      5-min Rain = 0
KMC4 162336Z 28009KT 37/06 A2978 RMK A01 T03690056  RH  015%=      5-min Rain = 0
KMC4 162337Z 27008KT 37/05 A2978 RMK A01 T03680054  RH  014%=      5-min Rain = 0
KMC4 162338Z 27007KT 37/06 A2978 RMK A01 T03680056  RH  015%=      5-min Rain = 0
KMC4 162339Z 27008KT 37/05 A2978 RMK A01 T03670052  RH  014%=      5-min Rain = 0
KMC4 162340Z 27005KT 37/05 A2978 RMK A01 T03660053  RH  015%=      5-min Rain = 0
KMC4 162341Z 27003KT 37/05 A2978 RMK A01 T03650052  RH  014%=      5-min Rain = 0
KMC4 162342Z 28002KT 37/05 A2978 RMK A01 T03650050  RH  014%=      5-min Rain = 0
KMC4 162343Z 27006KT 37/06 A2978 RMK A01 T03660058  RH  015%=      5-min Rain = 0
KMC4 162344Z 26005KT 37/06 A2978 RMK A01 T03660058  RH  015%=      5-min Rain = 0
KMC4 162345Z 27005KT 37/06 A2978 RMK A01 T03670059  RH  015%=      5-min Rain = 0
KMC4 162346Z 25006KT 37/06 A2978 RMK A01 T03670062  RH  015%=      5-min Rain = 0
KMC4 162347Z 26006KT 37/06 A2978 RMK A01 T03680059  RH  015%=      5-min Rain = 0
KMC4 162348Z 28008KT 37/06 A2978 RMK A01 T03680060  RH  015%=      5-min Rain = 0
KMC4 162349Z 28008KT 37/06 A2978 RMK A01 T03670063  RH  015%=      5-min Rain = 0
KMC4 162350Z 28008KT 37/06 A2978 RMK A01 T03680063  RH  015%=      5-min Rain = 0
KMC4 162351Z 28009KT 37/06 A2978 RMK A01 T03690063  RH  015%=      5-min Rain = 0
KMC4 162352Z 26008KT 37/06 A2978 RMK A01 T03690064  RH  015%=      5-min Rain = 0
KMC4 162353Z 25007KT 37/06 A2978 RMK A01 T03680061  RH  015%=      5-min Rain = 0
KMC4 162354Z 25005KT 37/06 A2979 RMK A01 T03660062  RH  015%=      5-min Rain = 0
KMC4 162355Z 24004KT 37/06 A2978 RMK A01 T03650061  RH  015%=      5-min Rain = 0
KMC4 162356Z 25004KT 37/06 A2979 RMK A01 T03650063  RH  016%=      5-min Rain = 0
KMC4 162357Z 25005KT 37/07 A2979 RMK A01 T03660066  RH  016%=      5-min Rain = 0
KMC4 162358Z 27005KT 37/07 A2979 RMK A01 T03670066  RH  016%=      5-min Rain = 0
KMC4 162359Z 26006KT 37/07 A2979 RMK A01 T03680067  RH  016%=      5-min Rain = 0
KMC4 170000Z 25005KT 37/06 A2979 RMK A01 T03680060  RH  015%=      5-min Rain = 0
KMC4 170001Z 25004KT 37/06 A2979 RMK A01 T03670061  RH  015%=      5-min Rain = 0
KMC4 170002Z 23004KT 37/06 A2979 RMK A01 T03670059  RH  015%=      5-min Rain = 0
KMC4 170003Z 28003KT 37/06 A2979 RMK A01 T03660063  RH  016%=      5-min Rain = 0
KMC4 170004Z 28002KT 37/06 A2979 RMK A01 T03670060  RH  015%=      5-min Rain = 0
KMC4 170005Z 27001KT 37/06 A2979 RMK A01 T03670062  RH  015%=      5-min Rain = 0
KMC4 170006Z 24003KT 37/07 A2979 RMK A01 T03680066  RH  016%=      5-min Rain = 0
KMC4 170007Z 26004KT 37/07 A2979 RMK A01 T03690067  RH  016%=      5-min Rain = 0
KMC4 170008Z 26004KT 37/07 A2979 RMK A01 T03680069  RH  016%=      5-min Rain = 0
KMC4 170009Z 26004KT 37/07 A2979 RMK A01 T03680069  RH  016%=      5-min Rain = 0
KMC4 170010Z 28005KT 37/07 A2979 RMK A01 T03670065  RH  016%=      5-min Rain = 0
KMC4 170011Z 27005KT 37/07 A2979 RMK A01 T03670067  RH  016%=      5-min Rain = 0
KMC4 170012Z 28006KT 37/07 A2979 RMK A01 T03680071  RH  016%=      5-min Rain = 0
KMC4 170013Z 28007KT 37/06 A2979 RMK A01 T03680060  RH  015%=      5-min Rain = 0
KMC4 170014Z 28009KT 37/06 A2979 RMK A01 T03680060  RH  015%=      5-min Rain = 0
KMC4 170015Z 26006KT 37/06 A2979 RMK A01 T03680062  RH  015%=      5-min Rain = 0
KMC4 170016Z 26008KT 37/07 A2979 RMK A01 T03680067  RH  016%=      5-min Rain = 0
KMC4 170017Z 26007KT 37/07 A2979 RMK A01 T03670065  RH  016%=      5-min Rain = 0
KMC4 170018Z 26007KT 37/06 A2979 RMK A01 T03660062  RH  015%=      5-min Rain = 0
KMC4 170019Z 28006KT 37/06 A2979 RMK A01 T03650063  RH  016%=      5-min Rain = 0
KMC4 170020Z 27006KT 37/06 A2979 RMK A01 T03650060  RH  015%=      5-min Rain = 0
KMC4 170021Z 27009KT 37/07 A2979 RMK A01 T03650066  RH  016%=      5-min Rain = 0
KMC4 170022Z 27008KT 37/06 A2979 RMK A01 T03660064  RH  016%=      5-min Rain = 0
KMC4 170023Z 27007KT 37/06 A2979 RMK A01 T03650064  RH  016%=      5-min Rain = 0
KMC4 170024Z 27009KT 37/07 A2979 RMK A01 T03650065  RH  016%=      5-min Rain = 0
KMC4 170025Z 27007KT 37/07 A2979 RMK A01 T03650070  RH  016%=      5-min Rain = 0
KMC4 170026Z 28008KT 37/06 A2979 RMK A01 T03650063  RH  016%=      5-min Rain = 0
KMC4 170027Z 28008KT 37/06 A2979 RMK A01 T03660063  RH  016%=      5-min Rain = 0
KMC4 170028Z 27007KT 37/07 A2979 RMK A01 T03650065  RH  016%=      5-min Rain = 0
KMC4 170029Z 27006KT 37/07 A2979 RMK A01 T03650065  RH  016%=      5-min Rain = 0
KMC4 170030Z 26006KT 36/06 A2979 RMK A01 T03640062  RH  016%=      5-min Rain = 0
KMC4 170031Z 27005KT 36/07 A2979 RMK A01 T03640065  RH  016%=      5-min Rain = 0
KMC4 170032Z 29007KT 36/07 A2979 RMK A01 T03640066  RH  016%=      5-min Rain = 0
KMC4 170033Z 29007KT 37/07 A2979 RMK A01 T03650065  RH  016%=      5-min Rain = 0
KMC4 170034Z 28007KT 37/07 A2979 RMK A01 T03650066  RH  016%=      5-min Rain = 0
KMC4 170035Z 28005KT 37/07 A2979 RMK A01 T03650066  RH  016%=      5-min Rain = 0
KMC4 170036Z 27005KT 37/07 A2979 RMK A01 T03650072  RH  017%=      5-min Rain = 0
KMC4 170037Z 27006KT 37/07 A2979 RMK A01 T03650072  RH  017%=      5-min Rain = 0
KMC4 170038Z 26006KT 37/07 A2979 RMK A01 T03650070  RH  016%=      5-min Rain = 0
KMC4 170039Z 27005KT 36/07 A2979 RMK A01 T03640071  RH  017%=      5-min Rain = 0
KMC4 170040Z 29004KT 36/07 A2979 RMK A01 T03640073  RH  017%=      5-min Rain = 0
KMC4 170041Z 28005KT 36/07 A2979 RMK A01 T03640072  RH  017%=      5-min Rain = 0
KMC4 170042Z 29006KT 37/07 A2979 RMK A01 T03650067  RH  016%=      5-min Rain = 0
KMC4 170043Z 28005KT 37/07 A2979 RMK A01 T03650068  RH  016%=      5-min Rain = 0
KMC4 170044Z 29004KT 37/07 A2979 RMK A01 T03650071  RH  017%=      5-min Rain = 0
KMC4 170045Z 29006KT 37/07 A2979 RMK A01 T03650068  RH  016%=      5-min Rain = 0
KMC4 170046Z 30004KT 37/07 A2979 RMK A01 T03650065  RH  016%=      5-min Rain = 0
KMC4 170047Z 30005KT 37/07 A2979 RMK A01 T03650068  RH  016%=      5-min Rain = 0
KMC4 170048Z 30006KT 37/07 A2979 RMK A01 T03650069  RH  016%=      5-min Rain = 0
KMC4 170049Z 30007KT 37/06 A2979 RMK A01 T03650064  RH  016%=      5-min Rain = 0
KMC4 170050Z 30007KT 36/07 A2979 RMK A01 T03640066  RH  016%=      5-min Rain = 0
KMC4 170051Z 29008KT 36/07 A2979 RMK A01 T03640066  RH  016%=      5-min Rain = 0
KMC4 170052Z 28007KT 36/06 A2979 RMK A01 T03630063  RH  016%=      5-min Rain = 0
KMC4 170053Z 29006KT 36/06 A2979 RMK A01 T03630063  RH  016%=      5-min Rain = 0
KMC4 170054Z 29005KT 36/07 A2979 RMK A01 T03630065  RH  016%=      5-min Rain = 0
KMC4 170055Z 28005KT 36/07 A2979 RMK A01 T03620066  RH  016%=      5-min Rain = 0
KMC4 170056Z 26004KT 36/06 A2979 RMK A01 T03630063  RH  016%=      5-min Rain = 0
KMC4 170057Z 28004KT 36/07 A2979 RMK A01 T03620069  RH  017%=      5-min Rain = 0
KMC4 170058Z 28004KT 36/07 A2979 RMK A01 T03620065  RH  016%=      5-min Rain = 0
KMC4 170059Z 28003KT 36/06 A2979 RMK A01 T03620064  RH  016%=      5-min Rain = 0
KMC4 170100Z 27003KT 36/07 A2979 RMK A01 T03620066  RH  016%=      5-min Rain = 0
KMC4 170101Z 26003KT 36/07 A2979 RMK A01 T03620067  RH  016%=      5-min Rain = 0
KMC4 170102Z 26002KT 36/07 A2979 RMK A01 T03620065  RH  016%=      5-min Rain = 0
KMC4 170103Z 25002KT 36/07 A2979 RMK A01 T03620066  RH  016%=      5-min Rain = 0
KMC4 170104Z 26002KT 36/07 A2979 RMK A01 T03620065  RH  016%=      5-min Rain = 0
KMC4 170105Z 25002KT 36/07 A2979 RMK A01 T03620069  RH  017%=      5-min Rain = 0
KMC4 170106Z 26002KT 36/07 A2979 RMK A01 T03610068  RH  017%=      5-min Rain = 0
KMC4 170107Z 24003KT 36/07 A2979 RMK A01 T03610074  RH  017%=      5-min Rain = 0
KMC4 170108Z 25004KT 36/07 A2979 RMK A01 T03610071  RH  017%=      5-min Rain = 0
KMC4 170109Z 25004KT 36/08 A2979 RMK A01 T03600077  RH  018%=      5-min Rain = 0
KMC4 170110Z 25005KT 36/08 A2979 RMK A01 T03580076  RH  018%=      5-min Rain = 0
KMC4 170111Z 24004KT 36/08 A2979 RMK A01 T03580079  RH  018%=      5-min Rain = 0
KMC4 170112Z 25004KT 36/08 A2979 RMK A01 T03560078  RH  018%=      5-min Rain = 0
KMC4 170113Z 24003KT 36/08 A2979 RMK A01 T03560077  RH  018%=      5-min Rain = 0
KMC4 170114Z 24004KT 36/08 A2979 RMK A01 T03560077  RH  018%=      5-min Rain = 0
KMC4 170115Z 24004KT 36/08 A2979 RMK A01 T03560075  RH  018%=      5-min Rain = 0
KMC4 170116Z 24003KT 36/08 A2979 RMK A01 T03560079  RH  018%=      5-min Rain = 0
KMC4 170117Z 24003KT 36/08 A2979 RMK A01 T03550077  RH  018%=      5-min Rain = 0
KMC4 170118Z 24004KT 35/08 A2979 RMK A01 T03540075  RH  018%=      5-min Rain = 0
KMC4 170119Z 24003KT 35/07 A2979 RMK A01 T03540072  RH  018%=      5-min Rain = 0
KMC4 170120Z 24003KT 35/08 A2979 RMK A01 T03540077  RH  018%=      5-min Rain = 0
KMC4 170121Z 25003KT 35/08 A2979 RMK A01 T03540081  RH  019%=      5-min Rain = 0
KMC4 170122Z 24003KT 35/08 A2979 RMK A01 T03540080  RH  019%=      5-min Rain = 0
KMC4 170123Z 24003KT 35/08 A2979 RMK A01 T03530083  RH  019%=      5-min Rain = 0
KMC4 170124Z 24003KT 35/08 A2979 RMK A01 T03520083  RH  019%=      5-min Rain = 0
KMC4 170125Z 23003KT 35/08 A2979 RMK A01 T03510082  RH  019%=      5-min Rain = 0
KMC4 170126Z 24003KT 35/08 A2979 RMK A01 T03510082  RH  019%=      5-min Rain = 0
KMC4 170127Z 23003KT 35/08 A2979 RMK A01 T03500084  RH  020%=      5-min Rain = 0
KMC4 170128Z 23003KT 35/09 A2979 RMK A01 T03500085  RH  020%=      5-min Rain = 0
KMC4 170129Z 24003KT 35/09 A2979 RMK A01 T03490086  RH  020%=      5-min Rain = 0
KMC4 170130Z 23003KT 35/09 A2979 RMK A01 T03490085  RH  020%=      5-min Rain = 0
KMC4 170131Z 24003KT 35/08 A2979 RMK A01 T03480084  RH  020%=      5-min Rain = 0
KMC4 170132Z 24003KT 35/09 A2979 RMK A01 T03480086  RH  020%=      5-min Rain = 0
KMC4 170133Z 24003KT 35/09 A2979 RMK A01 T03470086  RH  020%=      5-min Rain = 0
KMC4 170134Z 24003KT 35/09 A2979 RMK A01 T03460086  RH  020%=      5-min Rain = 0
KMC4 170135Z 24003KT 35/08 A2979 RMK A01 T03450084  RH  020%=      5-min Rain = 0
KMC4 170136Z 25003KT 35/08 A2979 RMK A01 T03450084  RH  020%=      5-min Rain = 0
KMC4 170137Z 25002KT 34/08 A2979 RMK A01 T03440084  RH  020%=      5-min Rain = 0
KMC4 170138Z 27002KT 34/08 A2979 RMK A01 T03440084  RH  020%=      5-min Rain = 0
KMC4 170139Z 29001KT 34/09 A2979 RMK A01 T03430085  RH  020%=      5-min Rain = 0
KMC4 170140Z 35002KT 34/09 A298 RMK A01 T03430085  RH  021%=      5-min Rain = 0
KMC4 170141Z 02006KT 34/10 A298 RMK A01 T03410095  RH  022%=      5-min Rain = 0
KMC4 170142Z 04008KT 34/09 A298 RMK A01 T03360093  RH  022%=      5-min Rain = 0
KMC4 170143Z 04008KT 34/13 A298 RMK A01 T03350133  RH  030%=      5-min Rain = 0
KMC4 170144Z 04009KT 33/16 A298 RMK A01 T03310159  RH  036%=      5-min Rain = 0
KMC4 170145Z 04009KT 33/17 A298 RMK A01 T03270167  RH  038%=      5-min Rain = 0
KMC4 170146Z 03008KT 32/17 A298 RMK A01 T03240170  RH  040%=      5-min Rain = 0
KMC4 170147Z 04009KT 32/17 A298 RMK A01 T03230172  RH  041%=      5-min Rain = 0
KMC4 170148Z 04015KT 32/17 A298 RMK A01 T03220169  RH  040%=      5-min Rain = 0
KMC4 170149Z 04014KT 32/16 A298 RMK A01 T03210164  RH  039%=      5-min Rain = 0
KMC4 170150Z 05015KT 32/16 A298 RMK A01 T03190162  RH  039%=      5-min Rain = 0
KMC4 170151Z 05015KT 32/16 A298 RMK A01 T03180162  RH  039%=      5-min Rain = 0
KMC4 170152Z 04015G20KT 32/16 A298 RMK A01 T03160162  RH  040%=      5-min Rain = 0
KMC4 170153Z 05016KT 32/16 A298 RMK A01 T03150163  RH  040%=      5-min Rain = 0
KMC4 170154Z 05017KT 31/16 A2981 RMK A01 T03130163  RH  040%=      5-min Rain = 0
KMC4 170155Z 04017KT 31/16 A2981 RMK A01 T03120164  RH  041%=      5-min Rain = 0
KMC4 170156Z 04013KT 31/16 A2981 RMK A01 T03110164  RH  041%=      5-min Rain = 0
KMC4 170157Z 04012KT 31/17 A2981 RMK A01 T03100165  RH  042%=      5-min Rain = 0
KMC4 170158Z 04009KT 31/16 A2981 RMK A01 T03100164  RH  042%=      5-min Rain = 0
KMC4 170159Z 04009KT 31/16 A2981 RMK A01 T03090164  RH  042%=      5-min Rain = 0
KMC4 170200Z 03010KT 31/16 A2981 RMK A01 T03090164  RH  042%=      5-min Rain = 0
KMC4 170201Z 04009KT 31/16 A2981 RMK A01 T03090164  RH  042%=      5-min Rain = 0
KMC4 170202Z 04011KT 31/16 A2981 RMK A01 T03080164  RH  042%=      5-min Rain = 0
KMC4 170203Z 04012G17KT 31/16 A2981 RMK A01 T03080164  RH  042%=      5-min Rain = 0
KMC4 170204Z 04013KT 31/17 A2981 RMK A01 T03070165  RH  042%=      5-min Rain = 0
KMC4 170205Z 03013KT 31/17 A2981 RMK A01 T03060165  RH  043%=      5-min Rain = 0
KMC4 170206Z 04011KT 31/17 A2981 RMK A01 T03060165  RH  043%=      5-min Rain = 0
KMC4 170207Z 04013KT 31/17 A298 RMK A01 T03050165  RH  043%=      5-min Rain = 0
KMC4 170208Z 04011KT 30/17 A298 RMK A01 T03040166  RH  043%=      5-min Rain = 0
KMC4 170209Z 05010KT 30/17 A298 RMK A01 T03040165  RH  043%=      5-min Rain = 0
KMC4 170210Z 04010KT 30/17 A298 RMK A01 T03040166  RH  043%=      5-min Rain = 0
KMC4 170211Z 05011KT 30/17 A298 RMK A01 T03030166  RH  044%=      5-min Rain = 0
KMC4 170212Z 04010KT 30/17 A298 RMK A01 T03030166  RH  044%=      5-min Rain = 0
KMC4 170213Z 03011KT 30/17 A298 RMK A01 T03030166  RH  044%=      5-min Rain = 0
KMC4 170214Z 04010KT 30/17 A298 RMK A01 T03030166  RH  044%=      5-min Rain = 0
KMC4 170215Z 04010KT 30/17 A298 RMK A01 T03030166  RH  044%=      5-min Rain = 0
KMC4 170216Z 05010KT 30/17 A2981 RMK A01 T03020166  RH  044%=      5-min Rain = 0
KMC4 170217Z 06006KT 30/17 A2981 RMK A01 T03020167  RH  044%=      5-min Rain = 0
KMC4 170218Z 08008KT 30/17 A2981 RMK A01 T03020167  RH  044%=      5-min Rain = 0
KMC4 170219Z 10006KT 30/17 A2981 RMK A01 T03010167  RH  044%=      5-min Rain = 0
KMC4 170220Z 13008G13KT 30/17 A2982 RMK A01 T03000166  RH  045%=      5-min Rain = 0
KMC4 170221Z 13010KT 30/17 A2982 RMK A01 T03000167  RH  045%=      5-min Rain = 0
KMC4 170222Z 14009KT 30/17 A2982 RMK A01 T02990167  RH  045%=      5-min Rain = 0
KMC4 170223Z 14008KT 30/17 A2982 RMK A01 T02980166  RH  045%=      5-min Rain = 0
KMC4 170224Z 14009KT 30/17 A2982 RMK A01 T02970166  RH  045%=      5-min Rain = 0
KMC4 170225Z 13010KT 30/17 A2982 RMK A01 T02970165  RH  045%=      5-min Rain = 0
KMC4 170226Z 14010KT 30/17 A2982 RMK A01 T02970165  RH  045%=      5-min Rain = 0
KMC4 170227Z 14010KT 30/17 A2982 RMK A01 T02980166  RH  045%=      5-min Rain = 0
KMC4 170228Z 14010KT 30/17 A2982 RMK A01 T02980167  RH  045%=      5-min Rain = 0
KMC4 170229Z 12011KT 30/17 A2982 RMK A01 T02980167  RH  045%=      5-min Rain = 0
KMC4 170230Z 10007KT 30/17 A2982 RMK A01 T02980167  RH  045%=      5-min Rain = 0
KMC4 170231Z 10010KT 30/17 A2982 RMK A01 T02980167  RH  045%=      5-min Rain = 0
KMC4 170232Z 08008KT 30/17 A2982 RMK A01 T02980166  RH  045%=      5-min Rain = 0
KMC4 170233Z 08010KT 30/17 A2982 RMK A01 T02980166  RH  045%=      5-min Rain = 0
KMC4 170234Z 08011KT 30/17 A2982 RMK A01 T02970166  RH  045%=      5-min Rain = 0
KMC4 170235Z 08010KT 30/17 A2982 RMK A01 T02970165  RH  045%=      5-min Rain = 0
KMC4 170236Z 07009KT 30/17 A2982 RMK A01 T02970165  RH  045%=      5-min Rain = 0
KMC4 170237Z 07011KT 30/17 A2982 RMK A01 T02960165  RH  045%=      5-min Rain = 0
KMC4 170238Z 07010KT 30/17 A2982 RMK A01 T02960165  RH  045%=      5-min Rain = 0
KMC4 170239Z 07012KT 30/17 A2982 RMK A01 T02960165  RH  045%=      5-min Rain = 0
KMC4 170240Z 06011KT 30/17 A2982 RMK A01 T02960165  RH  045%=      5-min Rain = 0
KMC4 170241Z 06012KT 30/16 A2982 RMK A01 T02960164  RH  045%=      5-min Rain = 0
KMC4 170242Z 06011KT 30/16 A2983 RMK A01 T02960163  RH  045%=      5-min Rain = 0
KMC4 170243Z 06010KT 30/16 A2983 RMK A01 T02950163  RH  045%=      5-min Rain = 0
KMC4 170244Z 06011KT 30/16 A2983 RMK A01 T02950163  RH  045%=      5-min Rain = 0
KMC4 170245Z 05011KT 29/16 A2983 RMK A01 T02940162  RH  045%=      5-min Rain = 0
KMC4 170246Z 05012KT 29/16 A2983 RMK A01 T02940162  RH  045%=      5-min Rain = 0
KMC4 170247Z 07008KT 29/16 A2983 RMK A01 T02940162  RH  045%=      5-min Rain = 0
KMC4 170248Z 05009KT 29/16 A2983 RMK A01 T02930162  RH  045%=      5-min Rain = 0
KMC4 170249Z 06010KT 29/16 A2983 RMK A01 T02930161  RH  045%=      5-min Rain = 0
KMC4 170250Z 06013KT 29/16 A2983 RMK A01 T02920161  RH  045%=      5-min Rain = 0
KMC4 170251Z 06012KT 29/16 A2983 RMK A01 T02920160  RH  045%=      5-min Rain = 0
KMC4 170252Z 07012KT 29/16 A2983 RMK A01 T02920160  RH  045%=      5-min Rain = 0
KMC4 170253Z 06010KT 29/16 A2984 RMK A01 T02920159  RH  045%=      5-min Rain = 0
KMC4 170254Z 06011KT 29/16 A2984 RMK A01 T02920160  RH  045%=      5-min Rain = 0
KMC4 170255Z 06011KT 29/16 A2984 RMK A01 T02910160  RH  045%=      5-min Rain = 0
KMC4 170256Z 06012KT 29/16 A2984 RMK A01 T02910158  RH  044%=      5-min Rain = 0
KMC4 170257Z 06008KT 29/16 A2984 RMK A01 T02910157  RH  044%=      5-min Rain = 0
KMC4 170258Z 06010KT 29/16 A2984 RMK A01 T02900157  RH  044%=      5-min Rain = 0
KMC4 170259Z 05008KT 29/16 A2984 RMK A01 T02900158  RH  045%=      5-min Rain = 0
KMC4 170300Z 06010KT 29/16 A2984 RMK A01 T02900157  RH  044%=      5-min Rain = 0
KMC4 170301Z 06011KT 29/16 A2984 RMK A01 T02890156  RH  044%=      5-min Rain = 0
KMC4 170302Z 06011KT 29/16 A2984 RMK A01 T02890156  RH  044%=      5-min Rain = 0
KMC4 170303Z 06012KT 29/16 A2984 RMK A01 T02890156  RH  044%=      5-min Rain = 0
KMC4 170304Z 05010KT 29/16 A2984 RMK A01 T02880155  RH  044%=      5-min Rain = 0
KMC4 170305Z 05007KT 29/16 A2984 RMK A01 T02880155  RH  044%=      5-min Rain = 0
KMC4 170306Z 06007KT 29/16 A2984 RMK A01 T02880155  RH  044%=      5-min Rain = 0
KMC4 170307Z 06008KT 29/16 A2985 RMK A01 T02880155  RH  045%=      5-min Rain = 0
KMC4 170308Z 06008KT 29/16 A2985 RMK A01 T02870155  RH  044%=      5-min Rain = 0
KMC4 170309Z 06008KT 29/15 A2985 RMK A01 T02870154  RH  044%=      5-min Rain = 0
KMC4 170310Z 05007KT 29/15 A2985 RMK A01 T02870154  RH  044%=      5-min Rain = 0
KMC4 170311Z 06008KT 29/15 A2985 RMK A01 T02870154  RH  045%=      5-min Rain = 0
KMC4 170312Z 05008KT 29/15 A2985 RMK A01 T02860153  RH  044%=      5-min Rain = 0
KMC4 170313Z 05008KT 29/15 A2985 RMK A01 T02860152  RH  044%=      5-min Rain = 0
KMC4 170314Z 05008KT 29/15 A2985 RMK A01 T02860151  RH  044%=      5-min Rain = 0
KMC4 170315Z 05010KT 29/15 A2985 RMK A01 T02860150  RH  044%=      5-min Rain = 0
KMC4 170316Z 05009KT 29/15 A2985 RMK A01 T02860150  RH  043%=      5-min Rain = 0
KMC4 170317Z 04009KT 29/15 A2985 RMK A01 T02860149  RH  043%=      5-min Rain = 0
KMC4 170318Z 04010KT 29/15 A2985 RMK A01 T02860148  RH  043%=      5-min Rain = 0
KMC4 170319Z 05008KT 29/15 A2985 RMK A01 T02860148  RH  043%=      5-min Rain = 0
KMC4 170320Z 05006KT 29/15 A2985 RMK A01 T02850147  RH  043%=      5-min Rain = 0
KMC4 170321Z 03005KT 29/15 A2985 RMK A01 T02850148  RH  043%=      5-min Rain = 0
KMC4 170322Z 04004KT 29/15 A2985 RMK A01 T02850148  RH  043%=      5-min Rain = 0
KMC4 170323Z 04005KT 28/15 A2985 RMK A01 T02840147  RH  043%=      5-min Rain = 0
KMC4 170324Z 05004KT 29/15 A2985 RMK A01 T02850147  RH  043%=      5-min Rain = 0
KMC4 170325Z 04008KT 28/15 A2985 RMK A01 T02840145  RH  043%=      5-min Rain = 0
KMC4 170326Z 05006KT 28/14 A2985 RMK A01 T02840144  RH  043%=      5-min Rain = 0
KMC4 170327Z 04007KT 28/15 A2986 RMK A01 T02840145  RH  043%=      5-min Rain = 0
KMC4 170328Z 04011KT 28/14 A2986 RMK A01 T02840144  RH  042%=      5-min Rain = 0
KMC4 170329Z 05010KT 28/14 A2986 RMK A01 T02840143  RH  042%=      5-min Rain = 0
KMC4 170330Z 05009KT 28/14 A2986 RMK A01 T02840143  RH  042%=      5-min Rain = 0
KMC4 170331Z 05010KT 28/14 A2986 RMK A01 T02840143  RH  042%=      5-min Rain = 0
KMC4 170332Z 05008KT 28/14 A2986 RMK A01 T02840143  RH  042%=      5-min Rain = 0
KMC4 170333Z 05010KT 28/14 A2986 RMK A01 T02830143  RH  042%=      5-min Rain = 0
KMC4 170334Z 06009KT 28/14 A2986 RMK A01 T02830143  RH  042%=      5-min Rain = 0
KMC4 170335Z 06008KT 28/14 A2986 RMK A01 T02830142  RH  042%=      5-min Rain = 0
KMC4 170336Z 06010KT 28/14 A2987 RMK A01 T02820142  RH  042%=      5-min Rain = 0
KMC4 170337Z 06009KT 28/14 A2987 RMK A01 T02820142  RH  042%=      5-min Rain = 0
KMC4 170338Z 06008KT 28/14 A2987 RMK A01 T02810142  RH  042%=      5-min Rain = 0
KMC4 170339Z 06007KT 28/14 A2987 RMK A01 T02810142  RH  043%=      5-min Rain = 0
KMC4 170340Z 06008KT 28/14 A2987 RMK A01 T02810142  RH  043%=      5-min Rain = 0
KMC4 170341Z 05006KT 28/14 A2987 RMK A01 T02810143  RH  043%=      5-min Rain = 0
KMC4 170342Z 05006KT 28/14 A2987 RMK A01 T02800143  RH  043%=      5-min Rain = 0
KMC4 170343Z 05007KT 28/14 A2987 RMK A01 T02800143  RH  043%=      5-min Rain = 0
KMC4 170344Z 05005KT 28/14 A2987 RMK A01 T02800143  RH  043%=      5-min Rain = 0
KMC4 170345Z 05006KT 28/14 A2987 RMK A01 T02800144  RH  043%=      5-min Rain = 0
KMC4 170346Z 07006KT 28/14 A2987 RMK A01 T02790144  RH  044%=      5-min Rain = 0
KMC4 170347Z 09005KT 28/14 A2987 RMK A01 T02790144  RH  044%=      5-min Rain = 0
KMC4 170348Z 08006KT 28/14 A2987 RMK A01 T02790144  RH  044%=      5-min Rain = 0
KMC4 170349Z 08007KT 28/15 A2987 RMK A01 T02790145  RH  044%=      5-min Rain = 0
KMC4 170350Z 08007KT 28/15 A2988 RMK A01 T02790146  RH  044%=      5-min Rain = 0
KMC4 170351Z 08006KT 28/15 A2988 RMK A01 T02780147  RH  044%=      5-min Rain = 0
KMC4 170352Z 08006KT 28/15 A2988 RMK A01 T02780147  RH  045%=      5-min Rain = 0
KMC4 170353Z 09007KT 28/15 A2988 RMK A01 T02770151  RH  046%=      5-min Rain = 0
KMC4 170354Z 08006KT 28/15 A2988 RMK A01 T02770152  RH  046%=      5-min Rain = 0
KMC4 170355Z 08007KT 28/15 A2988 RMK A01 T02770152  RH  046%=      5-min Rain = 0
KMC4 170356Z 07007KT 28/15 A2988 RMK A01 T02770154  RH  047%=      5-min Rain = 0
KMC4 170357Z 07008KT 28/16 A2988 RMK A01 T02770156  RH  047%=      5-min Rain = 0
KMC4 170358Z 07007KT 28/16 A2989 RMK A01 T02770159  RH  049%=      5-min Rain = 0
KMC4 170359Z 08006G12KT 28/16 A2989 RMK A01 T02770163  RH  050%=      5-min Rain = 0
KMC4 170400Z 08013G19KT 28/17 A2989 RMK A01 T02770173  RH  053%=      5-min Rain = 0
KMC4 170401Z 08014KT 28/18 A2989 RMK A01 T02770180  RH  056%=      5-min Rain = 0
KMC4 170402Z 10014G19KT 28/18 A2989 RMK A01 T02760183  RH  057%=      5-min Rain = 0
KMC4 170403Z 09012KT 28/18 A2989 RMK A01 T02750184  RH  058%=      5-min Rain = 0
KMC4 170404Z 10010KT 27/18 A2989 RMK A01 T02740184  RH  058%=      5-min Rain = 0
KMC4 170405Z 11010KT 27/19 A2989 RMK A01 T02740185  RH  058%=      5-min Rain = 0
KMC4 170406Z 11011KT 27/19 A2989 RMK A01 T02730185  RH  059%=      5-min Rain = 0
KMC4 170407Z 10012KT 27/19 A2989 RMK A01 T02730185  RH  059%=      5-min Rain = 0
KMC4 170408Z 09010KT 27/19 A2989 RMK A01 T02740186  RH  059%=      5-min Rain = 0
KMC4 170409Z 08009KT 27/19 A2989 RMK A01 T02740186  RH  059%=      5-min Rain = 0
KMC4 170410Z 08009KT 27/19 A2989 RMK A01 T02740187  RH  059%=      5-min Rain = 0
KMC4 170411Z 09012KT 27/19 A2989 RMK A01 T02710189  RH  061%=      5-min Rain = 0
KMC4 170412Z 09014KT 27/19 A2989 RMK A01 T02660190  RH  063%=      5-min Rain = 0
KMC4 170413Z 10014KT 26/19 A2989 RMK A01 T02620190  RH  065%=      5-min Rain = 0
KMC4 170414Z 10013KT 26/19 A299 RMK A01 T02600189  RH  065%=      5-min Rain = 0
KMC4 170415Z 10010KT 26/19 A299 RMK A01 T02590189  RH  065%=      5-min Rain = 0
KMC4 170416Z 10010KT 26/19 A299 RMK A01 T02580188  RH  065%=      5-min Rain = 0
KMC4 170417Z 09009KT 26/19 A299 RMK A01 T02580187  RH  065%=      5-min Rain = 0
KMC4 170418Z 09008KT 26/19 A299 RMK A01 T02580186  RH  065%=      5-min Rain = 0
KMC4 170419Z 09008KT 26/19 A299 RMK A01 T02580185  RH  064%=      5-min Rain = 0
KMC4 170420Z 09007KT 26/18 A299 RMK A01 T02580184  RH  064%=      5-min Rain = 0
KMC4 170421Z 07006KT 26/18 A299 RMK A01 T02580184  RH  064%=      5-min Rain = 0
KMC4 170422Z 08010KT 26/18 A299 RMK A01 T02580182  RH  063%=      5-min Rain = 0
KMC4 170423Z 08009KT 26/18 A299 RMK A01 T02570179  RH  062%=      5-min Rain = 0
KMC4 170424Z 07011KT 26/18 A299 RMK A01 T02560177  RH  062%=      5-min Rain = 0
KMC4 170425Z 08012KT 26/17 A299 RMK A01 T02560174  RH  061%=      5-min Rain = 0
KMC4 170426Z 07013G19KT 26/17 A299 RMK A01 T02560171  RH  059%=      5-min Rain = 0
KMC4 170427Z 08012KT 26/17 A299 RMK A01 T02550168  RH  058%=      5-min Rain = 0
KMC4 170428Z 08010KT 26/17 A2991 RMK A01 T02550167  RH  058%=      5-min Rain = 0
KMC4 170429Z 08013KT 26/16 A299 RMK A01 T02550164  RH  057%=      5-min Rain = 0
KMC4 170430Z 08012KT 26/16 A2991 RMK A01 T02550163  RH  057%=      5-min Rain = 0
KMC4 170431Z 08012G17KT 25/16 A2991 RMK A01 T02540161  RH  056%=      5-min Rain = 0
KMC4 170432Z 09012KT 25/16 A2991 RMK A01 T02540159  RH  056%=      5-min Rain = 0
KMC4 170433Z 08011KT 25/16 A2991 RMK A01 T02540159  RH  056%=      5-min Rain = 0
KMC4 170434Z 08009KT 25/16 A2991 RMK A01 T02530158  RH  056%=      5-min Rain = 0
KMC4 170435Z 08011KT 25/16 A2991 RMK A01 T02530157  RH  055%=      5-min Rain = 0
KMC4 170436Z 08012G18KT 25/15 A2991 RMK A01 T02530153  RH  054%=      5-min Rain = 0
KMC4 170437Z 09011KT 25/15 A2991 RMK A01 T02530153  RH  054%=      5-min Rain = 0
KMC4 170438Z 09011KT 25/15 A299 RMK A01 T02530152  RH  054%=      5-min Rain = 0
KMC4 170439Z 08009KT 25/15 A299 RMK A01 T02520151  RH  054%=      5-min Rain = 0
KMC4 170440Z 08011KT 25/15 A299 RMK A01 T02520151  RH  053%=      5-min Rain = 0
KMC4 170441Z 08009KT 25/15 A299 RMK A01 T02520150  RH  053%=      5-min Rain = 0
KMC4 170442Z 08008G13KT 25/15 A299 RMK A01 T02520150  RH  053%=      5-min Rain = 0
KMC4 170443Z 08012KT 25/15 A299 RMK A01 T02520148  RH  053%=      5-min Rain = 0
KMC4 170444Z 08009KT 25/15 A299 RMK A01 T02520148  RH  052%=      5-min Rain = 0
KMC4 170445Z 08009KT 25/15 A299 RMK A01 T02520147  RH  052%=      5-min Rain = 0
KMC4 170446Z 09007KT 25/15 A299 RMK A01 T02510147  RH  052%=      5-min Rain = 0
KMC4 170447Z 08007KT 25/15 A299 RMK A01 T02520147  RH  052%=      5-min Rain = 0
KMC4 170448Z 08006KT 25/15 A299 RMK A01 T02520147  RH  052%=      5-min Rain = 0
KMC4 170449Z 08006KT 25/15 A299 RMK A01 T02510146  RH  052%=      5-min Rain = 0
KMC4 170450Z 09008KT 25/15 A299 RMK A01 T02510146  RH  052%=      5-min Rain = 0
KMC4 170451Z 10008KT 25/15 A299 RMK A01 T02510145  RH  052%=      5-min Rain = 0
KMC4 170452Z 09005KT 25/15 A299 RMK A01 T02510145  RH  052%=      5-min Rain = 0
KMC4 170453Z 08004KT 25/15 A299 RMK A01 T02510145  RH  052%=      5-min Rain = 0
KMC4 170454Z 09005KT 25/15 A299 RMK A01 T02510145  RH  052%=      5-min Rain = 0
KMC4 170455Z 10006KT 25/14 A299 RMK A01 T02510144  RH  051%=      5-min Rain = 0
KMC4 170456Z 10006KT 25/14 A299 RMK A01 T02510143  RH  051%=      5-min Rain = 0
KMC4 170457Z 09006KT 25/14 A299 RMK A01 T02510143  RH  051%=      5-min Rain = 0
KMC4 170458Z 08005KT 25/14 A299 RMK A01 T02510143  RH  051%=      5-min Rain = 0
KMC4 170459Z 08006KT 25/14 A299 RMK A01 T02500142  RH  051%=      5-min Rain = 0

Page generated in 0.1324 seconds.